<?xml version="1.0" encoding="UTF-8" standalone="no" ?>
<gpx xmlns="http://www.topografix.com/GPX/1/1" xmlns:xsi="http://www.w3.org/2001/XMLSchema-instance" xsi:schemaLocation="http://www.topografix.com/GPX/1/1 http://www.topografix.com/GPX/1/1/gpx.xsd" version="1.1" creator="VisuGPX - https://www.visugpx.com">
  <metadata>
    <name>Nans-sous-Ste-Anne</name>
    <desc><![CDATA[Route created on plotaroute.com]]></desc>
  </metadata>
  <trk>
    <name><![CDATA[Nans-sous-Ste-Anne]]></name>
    <trkseg>
      <trkpt lat="46.97575" lon="5.99612">
        <ele>378</ele>
        <time>2022-06-05T00:00:00Z</time>
      </trkpt>
      <trkpt lat="46.97565" lon="5.99565">
        <ele>378</ele>
        <time>2022-06-05T00:00:27Z</time>
      </trkpt>
      <trkpt lat="46.97558" lon="5.99539">
        <ele>379</ele>
        <time>2022-06-05T00:00:42Z</time>
      </trkpt>
      <trkpt lat="46.97554" lon="5.99522">
        <ele>379</ele>
        <time>2022-06-05T00:00:52Z</time>
      </trkpt>
      <trkpt lat="46.97554" lon="5.99507">
        <ele>380</ele>
        <time>2022-06-05T00:01:00Z</time>
      </trkpt>
      <trkpt lat="46.97556" lon="5.99496">
        <ele>380</ele>
        <time>2022-06-05T00:01:06Z</time>
      </trkpt>
      <trkpt lat="46.97553" lon="5.99476">
        <ele>381</ele>
        <time>2022-06-05T00:01:18Z</time>
      </trkpt>
      <trkpt lat="46.97548" lon="5.99459">
        <ele>382</ele>
        <time>2022-06-05T00:01:28Z</time>
      </trkpt>
      <trkpt lat="46.97539" lon="5.99436">
        <ele>384</ele>
        <time>2022-06-05T00:01:42Z</time>
      </trkpt>
      <trkpt lat="46.97519" lon="5.99392">
        <ele>386</ele>
        <time>2022-06-05T00:02:11Z</time>
      </trkpt>
      <trkpt lat="46.97508" lon="5.99365">
        <ele>387</ele>
        <time>2022-06-05T00:02:28Z</time>
      </trkpt>
      <trkpt lat="46.97502" lon="5.99349">
        <ele>388</ele>
        <time>2022-06-05T00:02:38Z</time>
      </trkpt>
      <trkpt lat="46.97492" lon="5.99316">
        <ele>389</ele>
        <time>2022-06-05T00:02:58Z</time>
      </trkpt>
      <trkpt lat="46.9746" lon="5.99222">
        <ele>391</ele>
        <time>2022-06-05T00:03:56Z</time>
      </trkpt>
      <trkpt lat="46.97454" lon="5.99202">
        <ele>392</ele>
        <time>2022-06-05T00:04:08Z</time>
      </trkpt>
      <trkpt lat="46.97438" lon="5.99156">
        <ele>394</ele>
        <time>2022-06-05T00:04:36Z</time>
      </trkpt>
      <trkpt lat="46.97426" lon="5.99103">
        <ele>398</ele>
        <time>2022-06-05T00:05:06Z</time>
      </trkpt>
      <trkpt lat="46.97418" lon="5.99059">
        <ele>401</ele>
        <time>2022-06-05T00:05:31Z</time>
      </trkpt>
      <trkpt lat="46.97416" lon="5.99041">
        <ele>401</ele>
        <time>2022-06-05T00:05:41Z</time>
      </trkpt>
      <trkpt lat="46.97413" lon="5.9902">
        <ele>402</ele>
        <time>2022-06-05T00:05:53Z</time>
      </trkpt>
      <trkpt lat="46.97413" lon="5.99005">
        <ele>403</ele>
        <time>2022-06-05T00:06:01Z</time>
      </trkpt>
      <trkpt lat="46.97409" lon="5.98972">
        <ele>406</ele>
        <time>2022-06-05T00:06:19Z</time>
      </trkpt>
      <trkpt lat="46.97405" lon="5.98954">
        <ele>407</ele>
        <time>2022-06-05T00:06:30Z</time>
      </trkpt>
      <trkpt lat="46.97402" lon="5.98937">
        <ele>408</ele>
        <time>2022-06-05T00:06:39Z</time>
      </trkpt>
      <trkpt lat="46.9739" lon="5.98902">
        <ele>410</ele>
        <time>2022-06-05T00:07:01Z</time>
      </trkpt>
      <trkpt lat="46.97384" lon="5.98889">
        <ele>410</ele>
        <time>2022-06-05T00:07:09Z</time>
      </trkpt>
      <trkpt lat="46.97378" lon="5.98873">
        <ele>411</ele>
        <time>2022-06-05T00:07:19Z</time>
      </trkpt>
      <trkpt lat="46.97366" lon="5.98838">
        <ele>413</ele>
        <time>2022-06-05T00:07:41Z</time>
      </trkpt>
      <trkpt lat="46.97362" lon="5.98821">
        <ele>415</ele>
        <time>2022-06-05T00:07:51Z</time>
      </trkpt>
      <trkpt lat="46.9736" lon="5.98807">
        <ele>417</ele>
        <time>2022-06-05T00:07:58Z</time>
      </trkpt>
      <trkpt lat="46.97354" lon="5.98782">
        <ele>419</ele>
        <time>2022-06-05T00:08:13Z</time>
      </trkpt>
      <trkpt lat="46.97329" lon="5.98728">
        <ele>420</ele>
        <time>2022-06-05T00:08:49Z</time>
      </trkpt>
      <trkpt lat="46.97324" lon="5.98716">
        <ele>421</ele>
        <time>2022-06-05T00:08:56Z</time>
      </trkpt>
      <trkpt lat="46.9732" lon="5.98702">
        <ele>423</ele>
        <time>2022-06-05T00:09:05Z</time>
      </trkpt>
      <trkpt lat="46.97319" lon="5.98689">
        <ele>425</ele>
        <time>2022-06-05T00:09:12Z</time>
      </trkpt>
      <trkpt lat="46.97315" lon="5.98675">
        <ele>426</ele>
        <time>2022-06-05T00:09:20Z</time>
      </trkpt>
      <trkpt lat="46.97308" lon="5.98654">
        <ele>429</ele>
        <time>2022-06-05T00:09:33Z</time>
      </trkpt>
      <trkpt lat="46.97295" lon="5.9862">
        <ele>432</ele>
        <time>2022-06-05T00:09:54Z</time>
      </trkpt>
      <trkpt lat="46.97285" lon="5.98599">
        <ele>432</ele>
        <time>2022-06-05T00:10:08Z</time>
      </trkpt>
      <trkpt lat="46.97284" lon="5.98586">
        <ele>435</ele>
        <time>2022-06-05T00:10:15Z</time>
      </trkpt>
      <trkpt lat="46.97279" lon="5.98574">
        <ele>436</ele>
        <time>2022-06-05T00:10:23Z</time>
      </trkpt>
      <trkpt lat="46.97273" lon="5.98564">
        <ele>437</ele>
        <time>2022-06-05T00:10:30Z</time>
      </trkpt>
      <trkpt lat="46.97266" lon="5.98551">
        <ele>438</ele>
        <time>2022-06-05T00:10:39Z</time>
      </trkpt>
      <trkpt lat="46.97261" lon="5.98538">
        <ele>440</ele>
        <time>2022-06-05T00:10:48Z</time>
      </trkpt>
      <trkpt lat="46.97255" lon="5.98521">
        <ele>442</ele>
        <time>2022-06-05T00:10:58Z</time>
      </trkpt>
      <trkpt lat="46.9725" lon="5.98511">
        <ele>442</ele>
        <time>2022-06-05T00:11:05Z</time>
      </trkpt>
      <trkpt lat="46.97218" lon="5.98436">
        <ele>455</ele>
        <time>2022-06-05T00:11:53Z</time>
      </trkpt>
      <trkpt lat="46.97219" lon="5.98418">
        <ele>460</ele>
        <time>2022-06-05T00:12:03Z</time>
      </trkpt>
      <trkpt lat="46.97219" lon="5.98387">
        <ele>465</ele>
        <time>2022-06-05T00:12:20Z</time>
      </trkpt>
      <trkpt lat="46.97224" lon="5.98347">
        <ele>472</ele>
        <time>2022-06-05T00:12:42Z</time>
      </trkpt>
      <trkpt lat="46.97227" lon="5.9834">
        <ele>474</ele>
        <time>2022-06-05T00:12:47Z</time>
      </trkpt>
      <trkpt lat="46.97284" lon="5.98328">
        <ele>490</ele>
        <time>2022-06-05T00:13:33Z</time>
      </trkpt>
      <trkpt lat="46.97293" lon="5.9833">
        <ele>493</ele>
        <time>2022-06-05T00:13:40Z</time>
      </trkpt>
      <trkpt lat="46.97302" lon="5.98329">
        <ele>495</ele>
        <time>2022-06-05T00:13:47Z</time>
      </trkpt>
      <trkpt lat="46.97308" lon="5.98327">
        <ele>497</ele>
        <time>2022-06-05T00:13:52Z</time>
      </trkpt>
      <trkpt lat="46.97316" lon="5.9832">
        <ele>499</ele>
        <time>2022-06-05T00:14:00Z</time>
      </trkpt>
      <trkpt lat="46.9733" lon="5.983">
        <ele>504</ele>
        <time>2022-06-05T00:14:16Z</time>
      </trkpt>
      <trkpt lat="46.9734" lon="5.983">
        <ele>507</ele>
        <time>2022-06-05T00:14:24Z</time>
      </trkpt>
      <trkpt lat="46.97351" lon="5.98301">
        <ele>511</ele>
        <time>2022-06-05T00:14:32Z</time>
      </trkpt>
      <trkpt lat="46.97359" lon="5.98308">
        <ele>513</ele>
        <time>2022-06-05T00:14:40Z</time>
      </trkpt>
      <trkpt lat="46.97361" lon="5.98315">
        <ele>514</ele>
        <time>2022-06-05T00:14:44Z</time>
      </trkpt>
      <trkpt lat="46.97364" lon="5.9833">
        <ele>514</ele>
        <time>2022-06-05T00:14:53Z</time>
      </trkpt>
      <trkpt lat="46.97365" lon="5.9835">
        <ele>515</ele>
        <time>2022-06-05T00:15:04Z</time>
      </trkpt>
      <trkpt lat="46.97367" lon="5.98368">
        <ele>516</ele>
        <time>2022-06-05T00:15:13Z</time>
      </trkpt>
      <trkpt lat="46.97372" lon="5.98385">
        <ele>518</ele>
        <time>2022-06-05T00:15:24Z</time>
      </trkpt>
      <trkpt lat="46.97378" lon="5.98433">
        <ele>519</ele>
        <time>2022-06-05T00:15:50Z</time>
      </trkpt>
      <trkpt lat="46.97382" lon="5.98447">
        <ele>520</ele>
        <time>2022-06-05T00:15:59Z</time>
      </trkpt>
      <trkpt lat="46.97391" lon="5.98468">
        <ele>524</ele>
        <time>2022-06-05T00:16:12Z</time>
      </trkpt>
      <trkpt lat="46.97397" lon="5.9848">
        <ele>526</ele>
        <time>2022-06-05T00:16:20Z</time>
      </trkpt>
      <trkpt lat="46.97422" lon="5.98505">
        <ele>536</ele>
        <time>2022-06-05T00:16:45Z</time>
      </trkpt>
      <trkpt lat="46.97448" lon="5.98545">
        <ele>538</ele>
        <time>2022-06-05T00:17:15Z</time>
      </trkpt>
      <trkpt lat="46.97468" lon="5.98575">
        <ele>541</ele>
        <time>2022-06-05T00:17:38Z</time>
      </trkpt>
      <trkpt lat="46.97479" lon="5.98581">
        <ele>544</ele>
        <time>2022-06-05T00:17:47Z</time>
      </trkpt>
      <trkpt lat="46.97485" lon="5.98562">
        <ele>549</ele>
        <time>2022-06-05T00:17:59Z</time>
      </trkpt>
      <trkpt lat="46.97492" lon="5.98505">
        <ele>559</ele>
        <time>2022-06-05T00:18:30Z</time>
      </trkpt>
      <trkpt lat="46.97514" lon="5.98454">
        <ele>565</ele>
        <time>2022-06-05T00:19:03Z</time>
      </trkpt>
      <trkpt lat="46.97539" lon="5.984">
        <ele>571</ele>
        <time>2022-06-05T00:19:39Z</time>
      </trkpt>
      <trkpt lat="46.97528" lon="5.97943">
        <ele>623</ele>
        <time>2022-06-05T00:23:49Z</time>
      </trkpt>
      <trkpt lat="46.97517" lon="5.97877">
        <ele>627</ele>
        <time>2022-06-05T00:24:26Z</time>
      </trkpt>
      <trkpt lat="46.97476" lon="5.97768">
        <ele>629</ele>
        <time>2022-06-05T00:25:34Z</time>
      </trkpt>
      <trkpt lat="46.97453" lon="5.97687">
        <ele>628</ele>
        <time>2022-06-05T00:26:22Z</time>
      </trkpt>
      <trkpt lat="46.97429" lon="5.97579">
        <ele>643</ele>
        <time>2022-06-05T00:27:24Z</time>
      </trkpt>
      <trkpt lat="46.97397" lon="5.97563">
        <ele>651</ele>
        <time>2022-06-05T00:27:51Z</time>
      </trkpt>
      <trkpt lat="46.97382" lon="5.97563">
        <ele>656</ele>
        <time>2022-06-05T00:28:03Z</time>
      </trkpt>
      <trkpt lat="46.97372" lon="5.97564">
        <ele>659</ele>
        <time>2022-06-05T00:28:11Z</time>
      </trkpt>
      <trkpt lat="46.97364" lon="5.97555">
        <ele>662</ele>
        <time>2022-06-05T00:28:20Z</time>
      </trkpt>
      <trkpt lat="46.97354" lon="5.97542">
        <ele>667</ele>
        <time>2022-06-05T00:28:30Z</time>
      </trkpt>
      <trkpt lat="46.97337" lon="5.97544">
        <ele>672</ele>
        <time>2022-06-05T00:28:44Z</time>
      </trkpt>
      <trkpt lat="46.97321" lon="5.97562">
        <ele>673</ele>
        <time>2022-06-05T00:29:00Z</time>
      </trkpt>
      <trkpt lat="46.97307" lon="5.976">
        <ele>668</ele>
        <time>2022-06-05T00:29:24Z</time>
      </trkpt>
      <trkpt lat="46.97289" lon="5.97638">
        <ele>661</ele>
        <time>2022-06-05T00:29:49Z</time>
      </trkpt>
      <trkpt lat="46.97275" lon="5.97649">
        <ele>662</ele>
        <time>2022-06-05T00:30:02Z</time>
      </trkpt>
      <trkpt lat="46.97203" lon="5.97645">
        <ele>659</ele>
        <time>2022-06-05T00:30:59Z</time>
      </trkpt>
      <trkpt lat="46.97212" lon="5.97649">
        <ele>660</ele>
        <time>2022-06-05T00:31:07Z</time>
      </trkpt>
      <trkpt lat="46.97184" lon="5.97639">
        <ele>656</ele>
        <time>2022-06-05T00:31:30Z</time>
      </trkpt>
      <trkpt lat="46.97148" lon="5.97569">
        <ele>662</ele>
        <time>2022-06-05T00:32:18Z</time>
      </trkpt>
      <trkpt lat="46.97127" lon="5.97538">
        <ele>657</ele>
        <time>2022-06-05T00:32:42Z</time>
      </trkpt>
      <trkpt lat="46.97069" lon="5.97466">
        <ele>652</ele>
        <time>2022-06-05T00:33:43Z</time>
      </trkpt>
      <trkpt lat="46.96973" lon="5.97309">
        <ele>659</ele>
        <time>2022-06-05T00:35:38Z</time>
      </trkpt>
      <trkpt lat="46.96888" lon="5.9713">
        <ele>667</ele>
        <time>2022-06-05T00:37:37Z</time>
      </trkpt>
      <trkpt lat="46.96864" lon="5.97081">
        <ele>673</ele>
        <time>2022-06-05T00:38:10Z</time>
      </trkpt>
      <trkpt lat="46.96771" lon="5.96877">
        <ele>683</ele>
        <time>2022-06-05T00:40:25Z</time>
      </trkpt>
      <trkpt lat="46.96741" lon="5.96745">
        <ele>687</ele>
        <time>2022-06-05T00:41:41Z</time>
      </trkpt>
      <trkpt lat="46.9669" lon="5.96625">
        <ele>682</ele>
        <time>2022-06-05T00:42:58Z</time>
      </trkpt>
      <trkpt lat="46.96673" lon="5.96578">
        <ele>685</ele>
        <time>2022-06-05T00:43:27Z</time>
      </trkpt>
      <trkpt lat="46.96637" lon="5.96462">
        <ele>685</ele>
        <time>2022-06-05T00:44:37Z</time>
      </trkpt>
      <trkpt lat="46.96603" lon="5.96404">
        <ele>692</ele>
        <time>2022-06-05T00:45:19Z</time>
      </trkpt>
      <trkpt lat="46.96564" lon="5.96359">
        <ele>699</ele>
        <time>2022-06-05T00:45:58Z</time>
      </trkpt>
      <trkpt lat="46.9656" lon="5.96355">
        <ele>700</ele>
        <time>2022-06-05T00:46:02Z</time>
      </trkpt>
      <trkpt lat="46.9652" lon="5.96327">
        <ele>703</ele>
        <time>2022-06-05T00:46:38Z</time>
      </trkpt>
      <trkpt lat="46.96494" lon="5.96323">
        <ele>703</ele>
        <time>2022-06-05T00:46:59Z</time>
      </trkpt>
      <trkpt lat="46.9647" lon="5.96326">
        <ele>701</ele>
        <time>2022-06-05T00:47:18Z</time>
      </trkpt>
      <trkpt lat="46.96461" lon="5.96324">
        <ele>701</ele>
        <time>2022-06-05T00:47:25Z</time>
      </trkpt>
      <trkpt lat="46.96453" lon="5.96319">
        <ele>701</ele>
        <time>2022-06-05T00:47:32Z</time>
      </trkpt>
      <trkpt lat="46.96445" lon="5.96311">
        <ele>700</ele>
        <time>2022-06-05T00:47:40Z</time>
      </trkpt>
      <trkpt lat="46.96433" lon="5.963">
        <ele>701</ele>
        <time>2022-06-05T00:47:51Z</time>
      </trkpt>
      <trkpt lat="46.96404" lon="5.96269">
        <ele>702</ele>
        <time>2022-06-05T00:48:20Z</time>
      </trkpt>
      <trkpt lat="46.96395" lon="5.9626">
        <ele>704</ele>
        <time>2022-06-05T00:48:29Z</time>
      </trkpt>
      <trkpt lat="46.96387" lon="5.96257">
        <ele>705</ele>
        <time>2022-06-05T00:48:36Z</time>
      </trkpt>
      <trkpt lat="46.96383" lon="5.96257">
        <ele>705</ele>
        <time>2022-06-05T00:48:39Z</time>
      </trkpt>
      <trkpt lat="46.9638" lon="5.96255">
        <ele>705</ele>
        <time>2022-06-05T00:48:41Z</time>
      </trkpt>
      <trkpt lat="46.96366" lon="5.96238">
        <ele>707</ele>
        <time>2022-06-05T00:48:56Z</time>
      </trkpt>
      <trkpt lat="46.96361" lon="5.96231">
        <ele>707</ele>
        <time>2022-06-05T00:49:02Z</time>
      </trkpt>
      <trkpt lat="46.96336" lon="5.96192">
        <ele>708</ele>
        <time>2022-06-05T00:49:31Z</time>
      </trkpt>
      <trkpt lat="46.96311" lon="5.96167">
        <ele>711</ele>
        <time>2022-06-05T00:49:55Z</time>
      </trkpt>
      <trkpt lat="46.96307" lon="5.96165">
        <ele>711</ele>
        <time>2022-06-05T00:49:58Z</time>
      </trkpt>
      <trkpt lat="46.96298" lon="5.96158">
        <ele>713</ele>
        <time>2022-06-05T00:50:07Z</time>
      </trkpt>
      <trkpt lat="46.96288" lon="5.96149">
        <ele>714</ele>
        <time>2022-06-05T00:50:16Z</time>
      </trkpt>
      <trkpt lat="46.96284" lon="5.96132">
        <ele>715</ele>
        <time>2022-06-05T00:50:26Z</time>
      </trkpt>
      <trkpt lat="46.96283" lon="5.96112">
        <ele>716</ele>
        <time>2022-06-05T00:50:37Z</time>
      </trkpt>
      <trkpt lat="46.96284" lon="5.95988">
        <ele>716</ele>
        <time>2022-06-05T00:51:45Z</time>
      </trkpt>
      <trkpt lat="46.96284" lon="5.95941">
        <ele>714</ele>
        <time>2022-06-05T00:52:10Z</time>
      </trkpt>
      <trkpt lat="46.96279" lon="5.95905">
        <ele>714</ele>
        <time>2022-06-05T00:52:31Z</time>
      </trkpt>
      <trkpt lat="46.96273" lon="5.95886">
        <ele>714</ele>
        <time>2022-06-05T00:52:42Z</time>
      </trkpt>
      <trkpt lat="46.96268" lon="5.95873">
        <ele>714</ele>
        <time>2022-06-05T00:52:50Z</time>
      </trkpt>
      <trkpt lat="46.96263" lon="5.95867">
        <ele>714</ele>
        <time>2022-06-05T00:52:55Z</time>
      </trkpt>
      <trkpt lat="46.96239" lon="5.95843">
        <ele>716</ele>
        <time>2022-06-05T00:53:19Z</time>
      </trkpt>
      <trkpt lat="46.96234" lon="5.95836">
        <ele>716</ele>
        <time>2022-06-05T00:53:24Z</time>
      </trkpt>
      <trkpt lat="46.96228" lon="5.95829">
        <ele>716</ele>
        <time>2022-06-05T00:53:30Z</time>
      </trkpt>
      <trkpt lat="46.96218" lon="5.95816">
        <ele>716</ele>
        <time>2022-06-05T00:53:41Z</time>
      </trkpt>
      <trkpt lat="46.96204" lon="5.95799">
        <ele>716</ele>
        <time>2022-06-05T00:53:56Z</time>
      </trkpt>
      <trkpt lat="46.96195" lon="5.95787">
        <ele>716</ele>
        <time>2022-06-05T00:54:05Z</time>
      </trkpt>
      <trkpt lat="46.9618" lon="5.95766">
        <ele>717</ele>
        <time>2022-06-05T00:54:22Z</time>
      </trkpt>
      <trkpt lat="46.9616" lon="5.95743">
        <ele>718</ele>
        <time>2022-06-05T00:54:42Z</time>
      </trkpt>
      <trkpt lat="46.96123" lon="5.95702">
        <ele>718</ele>
        <time>2022-06-05T00:55:20Z</time>
      </trkpt>
      <trkpt lat="46.96095" lon="5.95672">
        <ele>718</ele>
        <time>2022-06-05T00:55:47Z</time>
      </trkpt>
      <trkpt lat="46.96081" lon="5.95656">
        <ele>718</ele>
        <time>2022-06-05T00:56:02Z</time>
      </trkpt>
      <trkpt lat="46.96055" lon="5.95625">
        <ele>716</ele>
        <time>2022-06-05T00:56:28Z</time>
      </trkpt>
      <trkpt lat="46.95989" lon="5.9555">
        <ele>713</ele>
        <time>2022-06-05T00:57:35Z</time>
      </trkpt>
      <trkpt lat="46.95968" lon="5.95524">
        <ele>712</ele>
        <time>2022-06-05T00:57:57Z</time>
      </trkpt>
      <trkpt lat="46.9595" lon="5.95505">
        <ele>712</ele>
        <time>2022-06-05T00:58:15Z</time>
      </trkpt>
      <trkpt lat="46.9594" lon="5.95493">
        <ele>711</ele>
        <time>2022-06-05T00:58:26Z</time>
      </trkpt>
      <trkpt lat="46.95911" lon="5.95464">
        <ele>711</ele>
        <time>2022-06-05T00:58:54Z</time>
      </trkpt>
      <trkpt lat="46.95897" lon="5.95448">
        <ele>711</ele>
        <time>2022-06-05T00:59:08Z</time>
      </trkpt>
      <trkpt lat="46.95881" lon="5.95429">
        <ele>711</ele>
        <time>2022-06-05T00:59:24Z</time>
      </trkpt>
      <trkpt lat="46.95857" lon="5.95405">
        <ele>711</ele>
        <time>2022-06-05T00:59:48Z</time>
      </trkpt>
      <trkpt lat="46.95844" lon="5.95394">
        <ele>712</ele>
        <time>2022-06-05T01:00:00Z</time>
      </trkpt>
      <trkpt lat="46.95831" lon="5.95384">
        <ele>712</ele>
        <time>2022-06-05T01:00:12Z</time>
      </trkpt>
      <trkpt lat="46.95824" lon="5.9538">
        <ele>711</ele>
        <time>2022-06-05T01:00:18Z</time>
      </trkpt>
      <trkpt lat="46.95818" lon="5.95377">
        <ele>711</ele>
        <time>2022-06-05T01:00:23Z</time>
      </trkpt>
      <trkpt lat="46.9581" lon="5.95375">
        <ele>711</ele>
        <time>2022-06-05T01:00:29Z</time>
      </trkpt>
      <trkpt lat="46.95803" lon="5.95374">
        <ele>711</ele>
        <time>2022-06-05T01:00:35Z</time>
      </trkpt>
      <trkpt lat="46.9579" lon="5.95376">
        <ele>710</ele>
        <time>2022-06-05T01:00:45Z</time>
      </trkpt>
      <trkpt lat="46.95774" lon="5.95383">
        <ele>710</ele>
        <time>2022-06-05T01:00:59Z</time>
      </trkpt>
      <trkpt lat="46.95761" lon="5.95394">
        <ele>710</ele>
        <time>2022-06-05T01:01:11Z</time>
      </trkpt>
      <trkpt lat="46.95756" lon="5.954">
        <ele>711</ele>
        <time>2022-06-05T01:01:16Z</time>
      </trkpt>
      <trkpt lat="46.9575" lon="5.95405">
        <ele>711</ele>
        <time>2022-06-05T01:01:21Z</time>
      </trkpt>
      <trkpt lat="46.95741" lon="5.95407">
        <ele>710</ele>
        <time>2022-06-05T01:01:29Z</time>
      </trkpt>
      <trkpt lat="46.95734" lon="5.95404">
        <ele>710</ele>
        <time>2022-06-05T01:01:34Z</time>
      </trkpt>
      <trkpt lat="46.95728" lon="5.95399">
        <ele>709</ele>
        <time>2022-06-05T01:01:40Z</time>
      </trkpt>
      <trkpt lat="46.95724" lon="5.95395">
        <ele>709</ele>
        <time>2022-06-05T01:01:44Z</time>
      </trkpt>
      <trkpt lat="46.95718" lon="5.95388">
        <ele>708</ele>
        <time>2022-06-05T01:01:50Z</time>
      </trkpt>
      <trkpt lat="46.95691" lon="5.9534">
        <ele>705</ele>
        <time>2022-06-05T01:02:24Z</time>
      </trkpt>
      <trkpt lat="46.95687" lon="5.95334">
        <ele>705</ele>
        <time>2022-06-05T01:02:29Z</time>
      </trkpt>
      <trkpt lat="46.95679" lon="5.95326">
        <ele>704</ele>
        <time>2022-06-05T01:02:36Z</time>
      </trkpt>
      <trkpt lat="46.95656" lon="5.95299">
        <ele>702</ele>
        <time>2022-06-05T01:03:00Z</time>
      </trkpt>
      <trkpt lat="46.95621" lon="5.95255">
        <ele>698</ele>
        <time>2022-06-05T01:03:37Z</time>
      </trkpt>
      <trkpt lat="46.95587" lon="5.95201">
        <ele>692</ele>
        <time>2022-06-05T01:04:17Z</time>
      </trkpt>
      <trkpt lat="46.95579" lon="5.95179">
        <ele>691</ele>
        <time>2022-06-05T01:04:31Z</time>
      </trkpt>
      <trkpt lat="46.95575" lon="5.95166">
        <ele>690</ele>
        <time>2022-06-05T01:04:39Z</time>
      </trkpt>
      <trkpt lat="46.95574" lon="5.95156">
        <ele>689</ele>
        <time>2022-06-05T01:04:44Z</time>
      </trkpt>
      <trkpt lat="46.95565" lon="5.95159">
        <ele>690</ele>
        <time>2022-06-05T01:04:52Z</time>
      </trkpt>
      <trkpt lat="46.9556" lon="5.9516">
        <ele>690</ele>
        <time>2022-06-05T01:04:56Z</time>
      </trkpt>
      <trkpt lat="46.95556" lon="5.95157">
        <ele>690</ele>
        <time>2022-06-05T01:04:59Z</time>
      </trkpt>
      <trkpt lat="46.9555" lon="5.95148">
        <ele>690</ele>
        <time>2022-06-05T01:05:06Z</time>
      </trkpt>
      <trkpt lat="46.9554" lon="5.95131">
        <ele>689</ele>
        <time>2022-06-05T01:05:18Z</time>
      </trkpt>
      <trkpt lat="46.95535" lon="5.95125">
        <ele>689</ele>
        <time>2022-06-05T01:05:24Z</time>
      </trkpt>
      <trkpt lat="46.95532" lon="5.95123">
        <ele>689</ele>
        <time>2022-06-05T01:05:26Z</time>
      </trkpt>
      <trkpt lat="46.95528" lon="5.95122">
        <ele>689</ele>
        <time>2022-06-05T01:05:29Z</time>
      </trkpt>
      <trkpt lat="46.95524" lon="5.95124">
        <ele>689</ele>
        <time>2022-06-05T01:05:33Z</time>
      </trkpt>
      <trkpt lat="46.95517" lon="5.95131">
        <ele>690</ele>
        <time>2022-06-05T01:05:40Z</time>
      </trkpt>
      <trkpt lat="46.95506" lon="5.95148">
        <ele>691</ele>
        <time>2022-06-05T01:05:52Z</time>
      </trkpt>
      <trkpt lat="46.955" lon="5.95159">
        <ele>691</ele>
        <time>2022-06-05T01:06:00Z</time>
      </trkpt>
      <trkpt lat="46.95496" lon="5.95168">
        <ele>691</ele>
        <time>2022-06-05T01:06:06Z</time>
      </trkpt>
      <trkpt lat="46.95493" lon="5.95179">
        <ele>690</ele>
        <time>2022-06-05T01:06:13Z</time>
      </trkpt>
      <trkpt lat="46.95488" lon="5.95203">
        <ele>690</ele>
        <time>2022-06-05T01:06:26Z</time>
      </trkpt>
      <trkpt lat="46.95488" lon="5.95206">
        <ele>690</ele>
        <time>2022-06-05T01:06:28Z</time>
      </trkpt>
      <trkpt lat="46.95482" lon="5.95235">
        <ele>690</ele>
        <time>2022-06-05T01:06:44Z</time>
      </trkpt>
      <trkpt lat="46.95478" lon="5.95252">
        <ele>689</ele>
        <time>2022-06-05T01:06:54Z</time>
      </trkpt>
      <trkpt lat="46.95475" lon="5.95285">
        <ele>689</ele>
        <time>2022-06-05T01:07:13Z</time>
      </trkpt>
      <trkpt lat="46.95472" lon="5.95352">
        <ele>691</ele>
        <time>2022-06-05T01:07:49Z</time>
      </trkpt>
      <trkpt lat="46.95472" lon="5.95374">
        <ele>692</ele>
        <time>2022-06-05T01:08:01Z</time>
      </trkpt>
      <trkpt lat="46.95473" lon="5.95386">
        <ele>692</ele>
        <time>2022-06-05T01:08:08Z</time>
      </trkpt>
      <trkpt lat="46.95473" lon="5.95395">
        <ele>693</ele>
        <time>2022-06-05T01:08:13Z</time>
      </trkpt>
      <trkpt lat="46.95471" lon="5.95403">
        <ele>693</ele>
        <time>2022-06-05T01:08:17Z</time>
      </trkpt>
      <trkpt lat="46.95468" lon="5.95411">
        <ele>693</ele>
        <time>2022-06-05T01:08:22Z</time>
      </trkpt>
      <trkpt lat="46.95459" lon="5.9543">
        <ele>691</ele>
        <time>2022-06-05T01:08:35Z</time>
      </trkpt>
      <trkpt lat="46.95433" lon="5.95475">
        <ele>688</ele>
        <time>2022-06-05T01:09:07Z</time>
      </trkpt>
      <trkpt lat="46.95422" lon="5.95501">
        <ele>687</ele>
        <time>2022-06-05T01:09:24Z</time>
      </trkpt>
      <trkpt lat="46.95417" lon="5.95514">
        <ele>686</ele>
        <time>2022-06-05T01:09:32Z</time>
      </trkpt>
      <trkpt lat="46.95411" lon="5.95535">
        <ele>685</ele>
        <time>2022-06-05T01:09:45Z</time>
      </trkpt>
      <trkpt lat="46.95408" lon="5.95551">
        <ele>685</ele>
        <time>2022-06-05T01:09:54Z</time>
      </trkpt>
      <trkpt lat="46.95407" lon="5.95559">
        <ele>685</ele>
        <time>2022-06-05T01:09:58Z</time>
      </trkpt>
      <trkpt lat="46.95403" lon="5.95611">
        <ele>684</ele>
        <time>2022-06-05T01:10:27Z</time>
      </trkpt>
      <trkpt lat="46.95402" lon="5.9563">
        <ele>684</ele>
        <time>2022-06-05T01:10:37Z</time>
      </trkpt>
      <trkpt lat="46.95401" lon="5.95637">
        <ele>684</ele>
        <time>2022-06-05T01:10:41Z</time>
      </trkpt>
      <trkpt lat="46.95403" lon="5.95665">
        <ele>684</ele>
        <time>2022-06-05T01:10:57Z</time>
      </trkpt>
      <trkpt lat="46.95416" lon="5.95734">
        <ele>683</ele>
        <time>2022-06-05T01:11:36Z</time>
      </trkpt>
      <trkpt lat="46.95427" lon="5.95772">
        <ele>684</ele>
        <time>2022-06-05T01:11:58Z</time>
      </trkpt>
      <trkpt lat="46.95456" lon="5.95839">
        <ele>689</ele>
        <time>2022-06-05T01:12:42Z</time>
      </trkpt>
      <trkpt lat="46.95461" lon="5.95854">
        <ele>690</ele>
        <time>2022-06-05T01:12:51Z</time>
      </trkpt>
      <trkpt lat="46.95462" lon="5.95861">
        <ele>690</ele>
        <time>2022-06-05T01:12:55Z</time>
      </trkpt>
      <trkpt lat="46.9546" lon="5.95867">
        <ele>690</ele>
        <time>2022-06-05T01:12:58Z</time>
      </trkpt>
      <trkpt lat="46.95456" lon="5.95873">
        <ele>690</ele>
        <time>2022-06-05T01:13:03Z</time>
      </trkpt>
      <trkpt lat="46.95451" lon="5.95876">
        <ele>690</ele>
        <time>2022-06-05T01:13:07Z</time>
      </trkpt>
      <trkpt lat="46.95444" lon="5.95886">
        <ele>691</ele>
        <time>2022-06-05T01:13:15Z</time>
      </trkpt>
      <trkpt lat="46.95442" lon="5.9589">
        <ele>691</ele>
        <time>2022-06-05T01:13:18Z</time>
      </trkpt>
      <trkpt lat="46.95436" lon="5.9591">
        <ele>693</ele>
        <time>2022-06-05T01:13:30Z</time>
      </trkpt>
      <trkpt lat="46.95435" lon="5.95919">
        <ele>694</ele>
        <time>2022-06-05T01:13:35Z</time>
      </trkpt>
      <trkpt lat="46.95436" lon="5.95927">
        <ele>694</ele>
        <time>2022-06-05T01:13:39Z</time>
      </trkpt>
      <trkpt lat="46.95437" lon="5.9593">
        <ele>694</ele>
        <time>2022-06-05T01:13:41Z</time>
      </trkpt>
      <trkpt lat="46.95446" lon="5.95946">
        <ele>695</ele>
        <time>2022-06-05T01:13:53Z</time>
      </trkpt>
      <trkpt lat="46.9545" lon="5.95956">
        <ele>695</ele>
        <time>2022-06-05T01:13:59Z</time>
      </trkpt>
      <trkpt lat="46.95454" lon="5.95978">
        <ele>696</ele>
        <time>2022-06-05T01:14:11Z</time>
      </trkpt>
      <trkpt lat="46.95456" lon="5.96001">
        <ele>697</ele>
        <time>2022-06-05T01:14:24Z</time>
      </trkpt>
      <trkpt lat="46.95453" lon="5.96028">
        <ele>699</ele>
        <time>2022-06-05T01:14:39Z</time>
      </trkpt>
      <trkpt lat="46.95449" lon="5.96049">
        <ele>701</ele>
        <time>2022-06-05T01:14:51Z</time>
      </trkpt>
      <trkpt lat="46.95437" lon="5.96086">
        <ele>705</ele>
        <time>2022-06-05T01:15:13Z</time>
      </trkpt>
      <trkpt lat="46.95434" lon="5.96102">
        <ele>706</ele>
        <time>2022-06-05T01:15:22Z</time>
      </trkpt>
      <trkpt lat="46.95432" lon="5.96127">
        <ele>707</ele>
        <time>2022-06-05T01:15:36Z</time>
      </trkpt>
      <trkpt lat="46.95424" lon="5.96151">
        <ele>709</ele>
        <time>2022-06-05T01:15:51Z</time>
      </trkpt>
      <trkpt lat="46.95416" lon="5.96184">
        <ele>710</ele>
        <time>2022-06-05T01:16:10Z</time>
      </trkpt>
      <trkpt lat="46.95412" lon="5.96204">
        <ele>710</ele>
        <time>2022-06-05T01:16:21Z</time>
      </trkpt>
      <trkpt lat="46.95408" lon="5.96219">
        <ele>710</ele>
        <time>2022-06-05T01:16:30Z</time>
      </trkpt>
      <trkpt lat="46.95408" lon="5.96226">
        <ele>709</ele>
        <time>2022-06-05T01:16:34Z</time>
      </trkpt>
      <trkpt lat="46.95409" lon="5.96245">
        <ele>709</ele>
        <time>2022-06-05T01:16:44Z</time>
      </trkpt>
      <trkpt lat="46.95409" lon="5.96262">
        <ele>710</ele>
        <time>2022-06-05T01:16:54Z</time>
      </trkpt>
      <trkpt lat="46.95412" lon="5.96274">
        <ele>710</ele>
        <time>2022-06-05T01:17:01Z</time>
      </trkpt>
      <trkpt lat="46.95413" lon="5.96282">
        <ele>710</ele>
        <time>2022-06-05T01:17:05Z</time>
      </trkpt>
      <trkpt lat="46.95414" lon="5.96302">
        <ele>710</ele>
        <time>2022-06-05T01:17:16Z</time>
      </trkpt>
      <trkpt lat="46.95414" lon="5.96314">
        <ele>711</ele>
        <time>2022-06-05T01:17:23Z</time>
      </trkpt>
      <trkpt lat="46.95415" lon="5.96326">
        <ele>711</ele>
        <time>2022-06-05T01:17:29Z</time>
      </trkpt>
      <trkpt lat="46.95414" lon="5.96347">
        <ele>712</ele>
        <time>2022-06-05T01:17:41Z</time>
      </trkpt>
      <trkpt lat="46.95413" lon="5.96354">
        <ele>713</ele>
        <time>2022-06-05T01:17:45Z</time>
      </trkpt>
      <trkpt lat="46.95412" lon="5.96373">
        <ele>715</ele>
        <time>2022-06-05T01:17:55Z</time>
      </trkpt>
      <trkpt lat="46.95412" lon="5.96383">
        <ele>716</ele>
        <time>2022-06-05T01:18:01Z</time>
      </trkpt>
      <trkpt lat="46.95415" lon="5.96434">
        <ele>721</ele>
        <time>2022-06-05T01:18:29Z</time>
      </trkpt>
      <trkpt lat="46.95416" lon="5.96443">
        <ele>722</ele>
        <time>2022-06-05T01:18:34Z</time>
      </trkpt>
      <trkpt lat="46.95416" lon="5.96451">
        <ele>723</ele>
        <time>2022-06-05T01:18:38Z</time>
      </trkpt>
      <trkpt lat="46.95414" lon="5.96455">
        <ele>724</ele>
        <time>2022-06-05T01:18:41Z</time>
      </trkpt>
      <trkpt lat="46.95404" lon="5.96462">
        <ele>726</ele>
        <time>2022-06-05T01:18:50Z</time>
      </trkpt>
      <trkpt lat="46.95401" lon="5.96467">
        <ele>727</ele>
        <time>2022-06-05T01:18:53Z</time>
      </trkpt>
      <trkpt lat="46.954" lon="5.96474">
        <ele>729</ele>
        <time>2022-06-05T01:18:57Z</time>
      </trkpt>
      <trkpt lat="46.95401" lon="5.9648">
        <ele>729</ele>
        <time>2022-06-05T01:19:00Z</time>
      </trkpt>
      <trkpt lat="46.9538" lon="5.96619">
        <ele>741</ele>
        <time>2022-06-05T01:20:18Z</time>
      </trkpt>
      <trkpt lat="46.95217" lon="5.96845">
        <ele>700</ele>
        <time>2022-06-05T01:23:18Z</time>
      </trkpt>
      <trkpt lat="46.95312" lon="5.96968">
        <ele>701</ele>
        <time>2022-06-05T01:25:00Z</time>
      </trkpt>
      <trkpt lat="46.95324" lon="5.96981">
        <ele>700</ele>
        <time>2022-06-05T01:25:12Z</time>
      </trkpt>
      <trkpt lat="46.95337" lon="5.96998">
        <ele>698</ele>
        <time>2022-06-05T01:25:26Z</time>
      </trkpt>
      <trkpt lat="46.9535" lon="5.97013">
        <ele>700</ele>
        <time>2022-06-05T01:25:39Z</time>
      </trkpt>
      <trkpt lat="46.95358" lon="5.9702">
        <ele>701</ele>
        <time>2022-06-05T01:25:47Z</time>
      </trkpt>
      <trkpt lat="46.95378" lon="5.9704">
        <ele>703</ele>
        <time>2022-06-05T01:26:06Z</time>
      </trkpt>
      <trkpt lat="46.95391" lon="5.97052">
        <ele>704</ele>
        <time>2022-06-05T01:26:18Z</time>
      </trkpt>
      <trkpt lat="46.95426" lon="5.97078">
        <ele>707</ele>
        <time>2022-06-05T01:26:50Z</time>
      </trkpt>
      <trkpt lat="46.95453" lon="5.97101">
        <ele>711</ele>
        <time>2022-06-05T01:27:15Z</time>
      </trkpt>
      <trkpt lat="46.95487" lon="5.97137">
        <ele>713</ele>
        <time>2022-06-05T01:27:48Z</time>
      </trkpt>
      <trkpt lat="46.95509" lon="5.97163">
        <ele>712</ele>
        <time>2022-06-05T01:28:11Z</time>
      </trkpt>
      <trkpt lat="46.95558" lon="5.97209">
        <ele>716</ele>
        <time>2022-06-05T01:28:58Z</time>
      </trkpt>
      <trkpt lat="46.95564" lon="5.97216">
        <ele>715</ele>
        <time>2022-06-05T01:29:04Z</time>
      </trkpt>
      <trkpt lat="46.9558" lon="5.97237">
        <ele>713</ele>
        <time>2022-06-05T01:29:21Z</time>
      </trkpt>
      <trkpt lat="46.9559" lon="5.97257">
        <ele>712</ele>
        <time>2022-06-05T01:29:35Z</time>
      </trkpt>
      <trkpt lat="46.95592" lon="5.97263">
        <ele>713</ele>
        <time>2022-06-05T01:29:38Z</time>
      </trkpt>
      <trkpt lat="46.95589" lon="5.97266">
        <ele>712</ele>
        <time>2022-06-05T01:29:41Z</time>
      </trkpt>
      <trkpt lat="46.9558" lon="5.97279">
        <ele>711</ele>
        <time>2022-06-05T01:29:51Z</time>
      </trkpt>
      <trkpt lat="46.95568" lon="5.97299">
        <ele>713</ele>
        <time>2022-06-05T01:30:06Z</time>
      </trkpt>
      <trkpt lat="46.9555" lon="5.97327">
        <ele>716</ele>
        <time>2022-06-05T01:30:27Z</time>
      </trkpt>
      <trkpt lat="46.95529" lon="5.97351">
        <ele>720</ele>
        <time>2022-06-05T01:30:48Z</time>
      </trkpt>
      <trkpt lat="46.95508" lon="5.97361">
        <ele>722</ele>
        <time>2022-06-05T01:31:06Z</time>
      </trkpt>
      <trkpt lat="46.95489" lon="5.97372">
        <ele>722</ele>
        <time>2022-06-05T01:31:22Z</time>
      </trkpt>
      <trkpt lat="46.95472" lon="5.97387">
        <ele>721</ele>
        <time>2022-06-05T01:31:38Z</time>
      </trkpt>
      <trkpt lat="46.95461" lon="5.97404">
        <ele>719</ele>
        <time>2022-06-05T01:31:51Z</time>
      </trkpt>
      <trkpt lat="46.95456" lon="5.97425">
        <ele>717</ele>
        <time>2022-06-05T01:32:03Z</time>
      </trkpt>
      <trkpt lat="46.95452" lon="5.97439">
        <ele>716</ele>
        <time>2022-06-05T01:32:12Z</time>
      </trkpt>
      <trkpt lat="46.9545" lon="5.97453">
        <ele>714</ele>
        <time>2022-06-05T01:32:19Z</time>
      </trkpt>
      <trkpt lat="46.95448" lon="5.97472">
        <ele>712</ele>
        <time>2022-06-05T01:32:30Z</time>
      </trkpt>
      <trkpt lat="46.95449" lon="5.97486">
        <ele>712</ele>
        <time>2022-06-05T01:32:38Z</time>
      </trkpt>
      <trkpt lat="46.9545" lon="5.97493">
        <ele>711</ele>
        <time>2022-06-05T01:32:41Z</time>
      </trkpt>
      <trkpt lat="46.95453" lon="5.97508">
        <ele>711</ele>
        <time>2022-06-05T01:32:50Z</time>
      </trkpt>
      <trkpt lat="46.95456" lon="5.97518">
        <ele>711</ele>
        <time>2022-06-05T01:32:56Z</time>
      </trkpt>
      <trkpt lat="46.95462" lon="5.97535">
        <ele>711</ele>
        <time>2022-06-05T01:33:06Z</time>
      </trkpt>
      <trkpt lat="46.95465" lon="5.97545">
        <ele>711</ele>
        <time>2022-06-05T01:33:12Z</time>
      </trkpt>
      <trkpt lat="46.9547" lon="5.97558">
        <ele>711</ele>
        <time>2022-06-05T01:33:21Z</time>
      </trkpt>
      <trkpt lat="46.95476" lon="5.97572">
        <ele>710</ele>
        <time>2022-06-05T01:33:30Z</time>
      </trkpt>
      <trkpt lat="46.95481" lon="5.97589">
        <ele>710</ele>
        <time>2022-06-05T01:33:40Z</time>
      </trkpt>
      <trkpt lat="46.95485" lon="5.97601">
        <ele>709</ele>
        <time>2022-06-05T01:33:47Z</time>
      </trkpt>
      <trkpt lat="46.95488" lon="5.97614">
        <ele>709</ele>
        <time>2022-06-05T01:33:55Z</time>
      </trkpt>
      <trkpt lat="46.95492" lon="5.97627">
        <ele>708</ele>
        <time>2022-06-05T01:34:02Z</time>
      </trkpt>
      <trkpt lat="46.95493" lon="5.97632">
        <ele>708</ele>
        <time>2022-06-05T01:34:05Z</time>
      </trkpt>
      <trkpt lat="46.95516" lon="5.97693">
        <ele>705</ele>
        <time>2022-06-05T01:34:43Z</time>
      </trkpt>
      <trkpt lat="46.95516" lon="5.97698">
        <ele>704</ele>
        <time>2022-06-05T01:34:46Z</time>
      </trkpt>
      <trkpt lat="46.95515" lon="5.97711">
        <ele>704</ele>
        <time>2022-06-05T01:34:53Z</time>
      </trkpt>
      <trkpt lat="46.95513" lon="5.97718">
        <ele>703</ele>
        <time>2022-06-05T01:34:57Z</time>
      </trkpt>
      <trkpt lat="46.95507" lon="5.97728">
        <ele>702</ele>
        <time>2022-06-05T01:35:05Z</time>
      </trkpt>
      <trkpt lat="46.95499" lon="5.97738">
        <ele>702</ele>
        <time>2022-06-05T01:35:13Z</time>
      </trkpt>
      <trkpt lat="46.9549" lon="5.97751">
        <ele>700</ele>
        <time>2022-06-05T01:35:23Z</time>
      </trkpt>
      <trkpt lat="46.95478" lon="5.97764">
        <ele>698</ele>
        <time>2022-06-05T01:35:35Z</time>
      </trkpt>
      <trkpt lat="46.95468" lon="5.97771">
        <ele>696</ele>
        <time>2022-06-05T01:35:44Z</time>
      </trkpt>
      <trkpt lat="46.95458" lon="5.97777">
        <ele>694</ele>
        <time>2022-06-05T01:35:53Z</time>
      </trkpt>
      <trkpt lat="46.95452" lon="5.97779">
        <ele>693</ele>
        <time>2022-06-05T01:35:58Z</time>
      </trkpt>
      <trkpt lat="46.95448" lon="5.97779">
        <ele>693</ele>
        <time>2022-06-05T01:36:01Z</time>
      </trkpt>
      <trkpt lat="46.95438" lon="5.97776">
        <ele>692</ele>
        <time>2022-06-05T01:36:09Z</time>
      </trkpt>
      <trkpt lat="46.95417" lon="5.97765">
        <ele>691</ele>
        <time>2022-06-05T01:36:27Z</time>
      </trkpt>
      <trkpt lat="46.9541" lon="5.97765">
        <ele>690</ele>
        <time>2022-06-05T01:36:33Z</time>
      </trkpt>
      <trkpt lat="46.95406" lon="5.97767">
        <ele>689</ele>
        <time>2022-06-05T01:36:36Z</time>
      </trkpt>
      <trkpt lat="46.95401" lon="5.97771">
        <ele>688</ele>
        <time>2022-06-05T01:36:41Z</time>
      </trkpt>
      <trkpt lat="46.95396" lon="5.97778">
        <ele>687</ele>
        <time>2022-06-05T01:36:46Z</time>
      </trkpt>
      <trkpt lat="46.95392" lon="5.97788">
        <ele>685</ele>
        <time>2022-06-05T01:36:52Z</time>
      </trkpt>
      <trkpt lat="46.95394" lon="5.978">
        <ele>684</ele>
        <time>2022-06-05T01:36:59Z</time>
      </trkpt>
      <trkpt lat="46.95399" lon="5.97815">
        <ele>684</ele>
        <time>2022-06-05T01:37:08Z</time>
      </trkpt>
      <trkpt lat="46.95401" lon="5.97823">
        <ele>683</ele>
        <time>2022-06-05T01:37:13Z</time>
      </trkpt>
      <trkpt lat="46.95405" lon="5.97835">
        <ele>682</ele>
        <time>2022-06-05T01:37:20Z</time>
      </trkpt>
      <trkpt lat="46.95417" lon="5.97867">
        <ele>681</ele>
        <time>2022-06-05T01:37:40Z</time>
      </trkpt>
      <trkpt lat="46.95433" lon="5.97899">
        <ele>680</ele>
        <time>2022-06-05T01:38:02Z</time>
      </trkpt>
      <trkpt lat="46.95451" lon="5.97932">
        <ele>679</ele>
        <time>2022-06-05T01:38:25Z</time>
      </trkpt>
      <trkpt lat="46.95457" lon="5.97946">
        <ele>678</ele>
        <time>2022-06-05T01:38:34Z</time>
      </trkpt>
      <trkpt lat="46.9546" lon="5.97958">
        <ele>677</ele>
        <time>2022-06-05T01:38:41Z</time>
      </trkpt>
      <trkpt lat="46.95461" lon="5.97968">
        <ele>676</ele>
        <time>2022-06-05T01:38:47Z</time>
      </trkpt>
      <trkpt lat="46.95462" lon="5.97982">
        <ele>674</ele>
        <time>2022-06-05T01:38:54Z</time>
      </trkpt>
      <trkpt lat="46.95462" lon="5.98009">
        <ele>671</ele>
        <time>2022-06-05T01:39:09Z</time>
      </trkpt>
      <trkpt lat="46.95464" lon="5.98037">
        <ele>669</ele>
        <time>2022-06-05T01:39:24Z</time>
      </trkpt>
      <trkpt lat="46.9547" lon="5.98061">
        <ele>668</ele>
        <time>2022-06-05T01:39:38Z</time>
      </trkpt>
      <trkpt lat="46.95475" lon="5.98084">
        <ele>667</ele>
        <time>2022-06-05T01:39:52Z</time>
      </trkpt>
      <trkpt lat="46.95484" lon="5.98116">
        <ele>666</ele>
        <time>2022-06-05T01:40:11Z</time>
      </trkpt>
      <trkpt lat="46.95495" lon="5.98149">
        <ele>665</ele>
        <time>2022-06-05T01:40:31Z</time>
      </trkpt>
      <trkpt lat="46.95513" lon="5.98207">
        <ele>661</ele>
        <time>2022-06-05T01:41:06Z</time>
      </trkpt>
      <trkpt lat="46.95523" lon="5.98238">
        <ele>658</ele>
        <time>2022-06-05T01:41:24Z</time>
      </trkpt>
      <trkpt lat="46.95528" lon="5.98252">
        <ele>658</ele>
        <time>2022-06-05T01:41:33Z</time>
      </trkpt>
      <trkpt lat="46.95542" lon="5.98294">
        <ele>656</ele>
        <time>2022-06-05T01:41:59Z</time>
      </trkpt>
      <trkpt lat="46.95551" lon="5.98334">
        <ele>655</ele>
        <time>2022-06-05T01:42:22Z</time>
      </trkpt>
      <trkpt lat="46.95555" lon="5.98356">
        <ele>654</ele>
        <time>2022-06-05T01:42:34Z</time>
      </trkpt>
      <trkpt lat="46.95555" lon="5.98359">
        <ele>654</ele>
        <time>2022-06-05T01:42:36Z</time>
      </trkpt>
      <trkpt lat="46.9556" lon="5.98401">
        <ele>653</ele>
        <time>2022-06-05T01:42:59Z</time>
      </trkpt>
      <trkpt lat="46.95562" lon="5.98422">
        <ele>652</ele>
        <time>2022-06-05T01:43:11Z</time>
      </trkpt>
      <trkpt lat="46.95566" lon="5.98437">
        <ele>651</ele>
        <time>2022-06-05T01:43:19Z</time>
      </trkpt>
      <trkpt lat="46.95588" lon="5.98497">
        <ele>648</ele>
        <time>2022-06-05T01:43:57Z</time>
      </trkpt>
      <trkpt lat="46.95598" lon="5.98523">
        <ele>648</ele>
        <time>2022-06-05T01:44:13Z</time>
      </trkpt>
      <trkpt lat="46.95601" lon="5.98532">
        <ele>648</ele>
        <time>2022-06-05T01:44:18Z</time>
      </trkpt>
      <trkpt lat="46.95604" lon="5.98548">
        <ele>647</ele>
        <time>2022-06-05T01:44:28Z</time>
      </trkpt>
      <trkpt lat="46.95604" lon="5.98558">
        <ele>646</ele>
        <time>2022-06-05T01:44:33Z</time>
      </trkpt>
      <trkpt lat="46.95605" lon="5.98576">
        <ele>644</ele>
        <time>2022-06-05T01:44:43Z</time>
      </trkpt>
      <trkpt lat="46.95605" lon="5.98596">
        <ele>643</ele>
        <time>2022-06-05T01:44:54Z</time>
      </trkpt>
      <trkpt lat="46.95602" lon="5.98628">
        <ele>641</ele>
        <time>2022-06-05T01:45:12Z</time>
      </trkpt>
      <trkpt lat="46.95601" lon="5.98642">
        <ele>640</ele>
        <time>2022-06-05T01:45:19Z</time>
      </trkpt>
      <trkpt lat="46.95599" lon="5.98649">
        <ele>639</ele>
        <time>2022-06-05T01:45:23Z</time>
      </trkpt>
      <trkpt lat="46.95597" lon="5.98653">
        <ele>639</ele>
        <time>2022-06-05T01:45:26Z</time>
      </trkpt>
      <trkpt lat="46.95589" lon="5.98658">
        <ele>637</ele>
        <time>2022-06-05T01:45:33Z</time>
      </trkpt>
      <trkpt lat="46.95573" lon="5.98669">
        <ele>635</ele>
        <time>2022-06-05T01:45:47Z</time>
      </trkpt>
      <trkpt lat="46.95557" lon="5.98685">
        <ele>634</ele>
        <time>2022-06-05T01:46:03Z</time>
      </trkpt>
      <trkpt lat="46.9555" lon="5.98695">
        <ele>634</ele>
        <time>2022-06-05T01:46:11Z</time>
      </trkpt>
      <trkpt lat="46.95544" lon="5.98706">
        <ele>633</ele>
        <time>2022-06-05T01:46:18Z</time>
      </trkpt>
      <trkpt lat="46.95541" lon="5.98711">
        <ele>633</ele>
        <time>2022-06-05T01:46:22Z</time>
      </trkpt>
      <trkpt lat="46.95538" lon="5.98715">
        <ele>633</ele>
        <time>2022-06-05T01:46:25Z</time>
      </trkpt>
      <trkpt lat="46.95547" lon="5.98725">
        <ele>633</ele>
        <time>2022-06-05T01:46:34Z</time>
      </trkpt>
      <trkpt lat="46.95551" lon="5.98729">
        <ele>634</ele>
        <time>2022-06-05T01:46:38Z</time>
      </trkpt>
      <trkpt lat="46.95559" lon="5.98736">
        <ele>634</ele>
        <time>2022-06-05T01:46:46Z</time>
      </trkpt>
      <trkpt lat="46.95572" lon="5.98751">
        <ele>634</ele>
        <time>2022-06-05T01:46:59Z</time>
      </trkpt>
      <trkpt lat="46.9558" lon="5.98762">
        <ele>635</ele>
        <time>2022-06-05T01:47:08Z</time>
      </trkpt>
      <trkpt lat="46.95586" lon="5.98772">
        <ele>635</ele>
        <time>2022-06-05T01:47:15Z</time>
      </trkpt>
      <trkpt lat="46.95589" lon="5.98779">
        <ele>635</ele>
        <time>2022-06-05T01:47:19Z</time>
      </trkpt>
      <trkpt lat="46.95603" lon="5.98783">
        <ele>636</ele>
        <time>2022-06-05T01:47:31Z</time>
      </trkpt>
      <trkpt lat="46.95618" lon="5.9879">
        <ele>637</ele>
        <time>2022-06-05T01:47:43Z</time>
      </trkpt>
      <trkpt lat="46.95635" lon="5.98797">
        <ele>638</ele>
        <time>2022-06-05T01:47:58Z</time>
      </trkpt>
      <trkpt lat="46.95643" lon="5.98799">
        <ele>638</ele>
        <time>2022-06-05T01:48:04Z</time>
      </trkpt>
      <trkpt lat="46.95646" lon="5.98806">
        <ele>638</ele>
        <time>2022-06-05T01:48:09Z</time>
      </trkpt>
      <trkpt lat="46.95651" lon="5.98813">
        <ele>638</ele>
        <time>2022-06-05T01:48:14Z</time>
      </trkpt>
      <trkpt lat="46.95697" lon="5.98861">
        <ele>640</ele>
        <time>2022-06-05T01:48:59Z</time>
      </trkpt>
      <trkpt lat="46.95727" lon="5.98891">
        <ele>641</ele>
        <time>2022-06-05T01:49:29Z</time>
      </trkpt>
      <trkpt lat="46.95768" lon="5.98936">
        <ele>643</ele>
        <time>2022-06-05T01:50:10Z</time>
      </trkpt>
      <trkpt lat="46.95787" lon="5.98959">
        <ele>644</ele>
        <time>2022-06-05T01:50:29Z</time>
      </trkpt>
      <trkpt lat="46.95818" lon="5.98988">
        <ele>644</ele>
        <time>2022-06-05T01:50:59Z</time>
      </trkpt>
      <trkpt lat="46.95853" lon="5.99024">
        <ele>646</ele>
        <time>2022-06-05T01:51:33Z</time>
      </trkpt>
      <trkpt lat="46.9588" lon="5.99053">
        <ele>649</ele>
        <time>2022-06-05T01:52:00Z</time>
      </trkpt>
      <trkpt lat="46.95902" lon="5.99078">
        <ele>651</ele>
        <time>2022-06-05T01:52:22Z</time>
      </trkpt>
      <trkpt lat="46.95929" lon="5.99116">
        <ele>654</ele>
        <time>2022-06-05T01:52:52Z</time>
      </trkpt>
      <trkpt lat="46.95962" lon="5.99154">
        <ele>656</ele>
        <time>2022-06-05T01:53:26Z</time>
      </trkpt>
      <trkpt lat="46.95978" lon="5.99185">
        <ele>656</ele>
        <time>2022-06-05T01:53:47Z</time>
      </trkpt>
      <trkpt lat="46.95994" lon="5.99213">
        <ele>656</ele>
        <time>2022-06-05T01:54:07Z</time>
      </trkpt>
      <trkpt lat="46.96015" lon="5.99241">
        <ele>657</ele>
        <time>2022-06-05T01:54:30Z</time>
      </trkpt>
      <trkpt lat="46.96035" lon="5.99265">
        <ele>657</ele>
        <time>2022-06-05T01:54:51Z</time>
      </trkpt>
      <trkpt lat="46.96117" lon="5.99337">
        <ele>662</ele>
        <time>2022-06-05T01:56:07Z</time>
      </trkpt>
      <trkpt lat="46.96169" lon="5.99382">
        <ele>661</ele>
        <time>2022-06-05T01:56:56Z</time>
      </trkpt>
      <trkpt lat="46.96231" lon="5.99418">
        <ele>670</ele>
        <time>2022-06-05T01:57:49Z</time>
      </trkpt>
      <trkpt lat="46.96269" lon="5.99441">
        <ele>671</ele>
        <time>2022-06-05T01:58:22Z</time>
      </trkpt>
      <trkpt lat="46.96278" lon="5.9945">
        <ele>670</ele>
        <time>2022-06-05T01:58:31Z</time>
      </trkpt>
      <trkpt lat="46.96284" lon="5.99466">
        <ele>668</ele>
        <time>2022-06-05T01:58:41Z</time>
      </trkpt>
      <trkpt lat="46.963" lon="5.99499">
        <ele>667</ele>
        <time>2022-06-05T01:59:03Z</time>
      </trkpt>
      <trkpt lat="46.96316" lon="5.99523">
        <ele>667</ele>
        <time>2022-06-05T01:59:21Z</time>
      </trkpt>
      <trkpt lat="46.96327" lon="5.99534">
        <ele>669</ele>
        <time>2022-06-05T01:59:32Z</time>
      </trkpt>
      <trkpt lat="46.96345" lon="5.9954">
        <ele>671</ele>
        <time>2022-06-05T01:59:47Z</time>
      </trkpt>
      <trkpt lat="46.9636" lon="5.99546">
        <ele>671</ele>
        <time>2022-06-05T01:59:59Z</time>
      </trkpt>
      <trkpt lat="46.96365" lon="5.99553">
        <ele>671</ele>
        <time>2022-06-05T02:00:05Z</time>
      </trkpt>
      <trkpt lat="46.96371" lon="5.99576">
        <ele>672</ele>
        <time>2022-06-05T02:00:18Z</time>
      </trkpt>
      <trkpt lat="46.96381" lon="5.99609">
        <ele>670</ele>
        <time>2022-06-05T02:00:38Z</time>
      </trkpt>
      <trkpt lat="46.96386" lon="5.99622">
        <ele>670</ele>
        <time>2022-06-05T02:00:46Z</time>
      </trkpt>
      <trkpt lat="46.96403" lon="5.9965">
        <ele>673</ele>
        <time>2022-06-05T02:01:07Z</time>
      </trkpt>
      <trkpt lat="46.9643" lon="5.99719">
        <ele>669</ele>
        <time>2022-06-05T02:01:50Z</time>
      </trkpt>
      <trkpt lat="46.96449" lon="5.99791">
        <ele>663</ele>
        <time>2022-06-05T02:02:32Z</time>
      </trkpt>
      <trkpt lat="46.96471" lon="5.99867">
        <ele>665</ele>
        <time>2022-06-05T02:03:18Z</time>
      </trkpt>
      <trkpt lat="46.96481" lon="5.99938">
        <ele>672</ele>
        <time>2022-06-05T02:03:57Z</time>
      </trkpt>
      <trkpt lat="46.96493" lon="6.00028">
        <ele>685</ele>
        <time>2022-06-05T02:04:47Z</time>
      </trkpt>
      <trkpt lat="46.96507" lon="6.00089">
        <ele>687</ele>
        <time>2022-06-05T02:05:23Z</time>
      </trkpt>
      <trkpt lat="46.96529" lon="6.00142">
        <ele>680</ele>
        <time>2022-06-05T02:05:57Z</time>
      </trkpt>
      <trkpt lat="46.96541" lon="6.00185">
        <ele>680</ele>
        <time>2022-06-05T02:06:22Z</time>
      </trkpt>
      <trkpt lat="46.96538" lon="6.00227">
        <ele>682</ele>
        <time>2022-06-05T02:06:45Z</time>
      </trkpt>
      <trkpt lat="46.96525" lon="6.00256">
        <ele>684</ele>
        <time>2022-06-05T02:07:04Z</time>
      </trkpt>
      <trkpt lat="46.96538" lon="6.00227">
        <ele>682</ele>
        <time>2022-06-05T02:07:23Z</time>
      </trkpt>
      <trkpt lat="46.96541" lon="6.00185">
        <ele>680</ele>
        <time>2022-06-05T02:07:46Z</time>
      </trkpt>
      <trkpt lat="46.96529" lon="6.00142">
        <ele>680</ele>
        <time>2022-06-05T02:08:11Z</time>
      </trkpt>
      <trkpt lat="46.96507" lon="6.00089">
        <ele>687</ele>
        <time>2022-06-05T02:08:45Z</time>
      </trkpt>
      <trkpt lat="46.96493" lon="6.00028">
        <ele>685</ele>
        <time>2022-06-05T02:09:21Z</time>
      </trkpt>
      <trkpt lat="46.96481" lon="5.99938">
        <ele>672</ele>
        <time>2022-06-05T02:10:11Z</time>
      </trkpt>
      <trkpt lat="46.96471" lon="5.99867">
        <ele>665</ele>
        <time>2022-06-05T02:10:50Z</time>
      </trkpt>
      <trkpt lat="46.96449" lon="5.99791">
        <ele>663</ele>
        <time>2022-06-05T02:11:36Z</time>
      </trkpt>
      <trkpt lat="46.9643" lon="5.99719">
        <ele>669</ele>
        <time>2022-06-05T02:12:18Z</time>
      </trkpt>
      <trkpt lat="46.96403" lon="5.9965">
        <ele>673</ele>
        <time>2022-06-05T02:13:01Z</time>
      </trkpt>
      <trkpt lat="46.96386" lon="5.99622">
        <ele>670</ele>
        <time>2022-06-05T02:13:22Z</time>
      </trkpt>
      <trkpt lat="46.96381" lon="5.99609">
        <ele>670</ele>
        <time>2022-06-05T02:13:30Z</time>
      </trkpt>
      <trkpt lat="46.96371" lon="5.99576">
        <ele>672</ele>
        <time>2022-06-05T02:13:50Z</time>
      </trkpt>
      <trkpt lat="46.96365" lon="5.99553">
        <ele>671</ele>
        <time>2022-06-05T02:14:03Z</time>
      </trkpt>
      <trkpt lat="46.9636" lon="5.99546">
        <ele>671</ele>
        <time>2022-06-05T02:14:09Z</time>
      </trkpt>
      <trkpt lat="46.96345" lon="5.9954">
        <ele>671</ele>
        <time>2022-06-05T02:14:21Z</time>
      </trkpt>
      <trkpt lat="46.96327" lon="5.99534">
        <ele>669</ele>
        <time>2022-06-05T02:14:36Z</time>
      </trkpt>
      <trkpt lat="46.96316" lon="5.99523">
        <ele>667</ele>
        <time>2022-06-05T02:14:47Z</time>
      </trkpt>
      <trkpt lat="46.963" lon="5.99499">
        <ele>667</ele>
        <time>2022-06-05T02:15:05Z</time>
      </trkpt>
      <trkpt lat="46.96327" lon="5.99511">
        <ele>672</ele>
        <time>2022-06-05T02:15:28Z</time>
      </trkpt>
      <trkpt lat="46.96347" lon="5.99504">
        <ele>674</ele>
        <time>2022-06-05T02:15:44Z</time>
      </trkpt>
      <trkpt lat="46.9637" lon="5.99475">
        <ele>672</ele>
        <time>2022-06-05T02:16:08Z</time>
      </trkpt>
      <trkpt lat="46.96394" lon="5.99422">
        <ele>668</ele>
        <time>2022-06-05T02:16:43Z</time>
      </trkpt>
      <trkpt lat="46.9641" lon="5.99399">
        <ele>666</ele>
        <time>2022-06-05T02:17:01Z</time>
      </trkpt>
      <trkpt lat="46.9642" lon="5.99392">
        <ele>664</ele>
        <time>2022-06-05T02:17:10Z</time>
      </trkpt>
      <trkpt lat="46.9642" lon="5.99409">
        <ele>664</ele>
        <time>2022-06-05T02:17:19Z</time>
      </trkpt>
      <trkpt lat="46.96417" lon="5.99463">
        <ele>667</ele>
        <time>2022-06-05T02:17:49Z</time>
      </trkpt>
      <trkpt lat="46.96426" lon="5.99507">
        <ele>664</ele>
        <time>2022-06-05T02:18:14Z</time>
      </trkpt>
      <trkpt lat="46.96436" lon="5.99513">
        <ele>660</ele>
        <time>2022-06-05T02:18:23Z</time>
      </trkpt>
      <trkpt lat="46.9645" lon="5.99504">
        <ele>652</ele>
        <time>2022-06-05T02:18:35Z</time>
      </trkpt>
      <trkpt lat="46.96467" lon="5.9947">
        <ele>648</ele>
        <time>2022-06-05T02:18:58Z</time>
      </trkpt>
      <trkpt lat="46.96486" lon="5.99428">
        <ele>649</ele>
        <time>2022-06-05T02:19:26Z</time>
      </trkpt>
      <trkpt lat="46.96497" lon="5.99424">
        <ele>647</ele>
        <time>2022-06-05T02:19:35Z</time>
      </trkpt>
      <trkpt lat="46.96503" lon="5.99439">
        <ele>640</ele>
        <time>2022-06-05T02:19:44Z</time>
      </trkpt>
      <trkpt lat="46.96509" lon="5.99506">
        <ele>622</ele>
        <time>2022-06-05T02:20:21Z</time>
      </trkpt>
      <trkpt lat="46.96521" lon="5.99549">
        <ele>614</ele>
        <time>2022-06-05T02:20:47Z</time>
      </trkpt>
      <trkpt lat="46.96535" lon="5.99577">
        <ele>606</ele>
        <time>2022-06-05T02:21:06Z</time>
      </trkpt>
      <trkpt lat="46.96539" lon="5.99613">
        <ele>607</ele>
        <time>2022-06-05T02:21:26Z</time>
      </trkpt>
      <trkpt lat="46.96565" lon="5.99649">
        <ele>600</ele>
        <time>2022-06-05T02:21:54Z</time>
      </trkpt>
      <trkpt lat="46.96579" lon="5.9967">
        <ele>597</ele>
        <time>2022-06-05T02:22:10Z</time>
      </trkpt>
      <trkpt lat="46.96586" lon="5.99688">
        <ele>595</ele>
        <time>2022-06-05T02:22:22Z</time>
      </trkpt>
      <trkpt lat="46.96592" lon="5.99712">
        <ele>594</ele>
        <time>2022-06-05T02:22:36Z</time>
      </trkpt>
      <trkpt lat="46.966" lon="5.99737">
        <ele>594</ele>
        <time>2022-06-05T02:22:51Z</time>
      </trkpt>
      <trkpt lat="46.96607" lon="5.99756">
        <ele>593</ele>
        <time>2022-06-05T02:23:03Z</time>
      </trkpt>
      <trkpt lat="46.96612" lon="5.99774">
        <ele>593</ele>
        <time>2022-06-05T02:23:13Z</time>
      </trkpt>
      <trkpt lat="46.96618" lon="5.99803">
        <ele>594</ele>
        <time>2022-06-05T02:23:30Z</time>
      </trkpt>
      <trkpt lat="46.96637" lon="5.99884">
        <ele>598</ele>
        <time>2022-06-05T02:24:17Z</time>
      </trkpt>
      <trkpt lat="46.9666" lon="5.99938">
        <ele>600</ele>
        <time>2022-06-05T02:24:51Z</time>
      </trkpt>
      <trkpt lat="46.96697" lon="5.99999">
        <ele>597</ele>
        <time>2022-06-05T02:25:36Z</time>
      </trkpt>
      <trkpt lat="46.96726" lon="6.00042">
        <ele>594</ele>
        <time>2022-06-05T02:26:09Z</time>
      </trkpt>
      <trkpt lat="46.96752" lon="6.00082">
        <ele>592</ele>
        <time>2022-06-05T02:26:39Z</time>
      </trkpt>
      <trkpt lat="46.96757" lon="6.00094">
        <ele>592</ele>
        <time>2022-06-05T02:26:47Z</time>
      </trkpt>
      <trkpt lat="46.96759" lon="6.00104">
        <ele>593</ele>
        <time>2022-06-05T02:26:53Z</time>
      </trkpt>
      <trkpt lat="46.96761" lon="6.00124">
        <ele>594</ele>
        <time>2022-06-05T02:27:04Z</time>
      </trkpt>
      <trkpt lat="46.96759" lon="6.00148">
        <ele>597</ele>
        <time>2022-06-05T02:27:17Z</time>
      </trkpt>
      <trkpt lat="46.96756" lon="6.00172">
        <ele>600</ele>
        <time>2022-06-05T02:27:30Z</time>
      </trkpt>
      <trkpt lat="46.96749" lon="6.00215">
        <ele>601</ele>
        <time>2022-06-05T02:27:55Z</time>
      </trkpt>
      <trkpt lat="46.96747" lon="6.00234">
        <ele>602</ele>
        <time>2022-06-05T02:28:05Z</time>
      </trkpt>
      <trkpt lat="46.96747" lon="6.00245">
        <ele>602</ele>
        <time>2022-06-05T02:28:11Z</time>
      </trkpt>
      <trkpt lat="46.96743" lon="6.0026">
        <ele>602</ele>
        <time>2022-06-05T02:28:20Z</time>
      </trkpt>
      <trkpt lat="46.96728" lon="6.00312">
        <ele>602</ele>
        <time>2022-06-05T02:28:51Z</time>
      </trkpt>
      <trkpt lat="46.96704" lon="6.00378">
        <ele>605</ele>
        <time>2022-06-05T02:29:32Z</time>
      </trkpt>
      <trkpt lat="46.9669" lon="6.00431">
        <ele>602</ele>
        <time>2022-06-05T02:30:03Z</time>
      </trkpt>
      <trkpt lat="46.96642" lon="6.00489">
        <ele>603</ele>
        <time>2022-06-05T02:30:53Z</time>
      </trkpt>
      <trkpt lat="46.96604" lon="6.0053">
        <ele>599</ele>
        <time>2022-06-05T02:31:30Z</time>
      </trkpt>
      <trkpt lat="46.96585" lon="6.0055">
        <ele>598</ele>
        <time>2022-06-05T02:31:49Z</time>
      </trkpt>
      <trkpt lat="46.9657" lon="6.00586">
        <ele>591</ele>
        <time>2022-06-05T02:32:12Z</time>
      </trkpt>
      <trkpt lat="46.96567" lon="6.00633">
        <ele>577</ele>
        <time>2022-06-05T02:32:38Z</time>
      </trkpt>
      <trkpt lat="46.96554" lon="6.00664">
        <ele>570</ele>
        <time>2022-06-05T02:32:58Z</time>
      </trkpt>
      <trkpt lat="46.96513" lon="6.00723">
        <ele>563</ele>
        <time>2022-06-05T02:33:44Z</time>
      </trkpt>
      <trkpt lat="46.96486" lon="6.00746">
        <ele>561</ele>
        <time>2022-06-05T02:34:09Z</time>
      </trkpt>
      <trkpt lat="46.9646" lon="6.00757">
        <ele>558</ele>
        <time>2022-06-05T02:34:31Z</time>
      </trkpt>
      <trkpt lat="46.96438" lon="6.00769">
        <ele>555</ele>
        <time>2022-06-05T02:34:50Z</time>
      </trkpt>
      <trkpt lat="46.96409" lon="6.00795">
        <ele>548</ele>
        <time>2022-06-05T02:35:17Z</time>
      </trkpt>
      <trkpt lat="46.96385" lon="6.00806">
        <ele>542</ele>
        <time>2022-06-05T02:35:37Z</time>
      </trkpt>
      <trkpt lat="46.96332" lon="6.00825">
        <ele>530</ele>
        <time>2022-06-05T02:36:21Z</time>
      </trkpt>
      <trkpt lat="46.96324" lon="6.00833">
        <ele>527</ele>
        <time>2022-06-05T02:36:28Z</time>
      </trkpt>
      <trkpt lat="46.96303" lon="6.0085">
        <ele>523</ele>
        <time>2022-06-05T02:36:48Z</time>
      </trkpt>
      <trkpt lat="46.96266" lon="6.00882">
        <ele>516</ele>
        <time>2022-06-05T02:37:22Z</time>
      </trkpt>
      <trkpt lat="46.9625" lon="6.009">
        <ele>514</ele>
        <time>2022-06-05T02:37:38Z</time>
      </trkpt>
      <trkpt lat="46.96244" lon="6.00909">
        <ele>513</ele>
        <time>2022-06-05T02:37:45Z</time>
      </trkpt>
      <trkpt lat="46.9624" lon="6.00917">
        <ele>512</ele>
        <time>2022-06-05T02:37:51Z</time>
      </trkpt>
      <trkpt lat="46.96235" lon="6.00942">
        <ele>511</ele>
        <time>2022-06-05T02:38:05Z</time>
      </trkpt>
      <trkpt lat="46.96232" lon="6.00954">
        <ele>510</ele>
        <time>2022-06-05T02:38:12Z</time>
      </trkpt>
      <trkpt lat="46.9623" lon="6.00964">
        <ele>510</ele>
        <time>2022-06-05T02:38:18Z</time>
      </trkpt>
      <trkpt lat="46.96227" lon="6.00974">
        <ele>509</ele>
        <time>2022-06-05T02:38:23Z</time>
      </trkpt>
      <trkpt lat="46.96226" lon="6.0098">
        <ele>509</ele>
        <time>2022-06-05T02:38:27Z</time>
      </trkpt>
      <trkpt lat="46.96226" lon="6.00986">
        <ele>509</ele>
        <time>2022-06-05T02:38:30Z</time>
      </trkpt>
      <trkpt lat="46.96228" lon="6.00996">
        <ele>509</ele>
        <time>2022-06-05T02:38:36Z</time>
      </trkpt>
      <trkpt lat="46.9623" lon="6.01016">
        <ele>508</ele>
        <time>2022-06-05T02:38:47Z</time>
      </trkpt>
      <trkpt lat="46.9623" lon="6.01048">
        <ele>506</ele>
        <time>2022-06-05T02:39:04Z</time>
      </trkpt>
      <trkpt lat="46.96231" lon="6.01055">
        <ele>506</ele>
        <time>2022-06-05T02:39:08Z</time>
      </trkpt>
      <trkpt lat="46.96236" lon="6.01072">
        <ele>505</ele>
        <time>2022-06-05T02:39:18Z</time>
      </trkpt>
      <trkpt lat="46.96241" lon="6.01082">
        <ele>505</ele>
        <time>2022-06-05T02:39:25Z</time>
      </trkpt>
      <trkpt lat="46.96243" lon="6.01088">
        <ele>505</ele>
        <time>2022-06-05T02:39:29Z</time>
      </trkpt>
      <trkpt lat="46.96243" lon="6.01102">
        <ele>504</ele>
        <time>2022-06-05T02:39:37Z</time>
      </trkpt>
      <trkpt lat="46.96242" lon="6.01124">
        <ele>502</ele>
        <time>2022-06-05T02:39:49Z</time>
      </trkpt>
      <trkpt lat="46.96242" lon="6.01142">
        <ele>500</ele>
        <time>2022-06-05T02:39:58Z</time>
      </trkpt>
      <trkpt lat="46.96243" lon="6.01152">
        <ele>499</ele>
        <time>2022-06-05T02:40:04Z</time>
      </trkpt>
      <trkpt lat="46.96246" lon="6.01162">
        <ele>498</ele>
        <time>2022-06-05T02:40:10Z</time>
      </trkpt>
      <trkpt lat="46.96249" lon="6.01174">
        <ele>498</ele>
        <time>2022-06-05T02:40:17Z</time>
      </trkpt>
      <trkpt lat="46.96257" lon="6.01193">
        <ele>498</ele>
        <time>2022-06-05T02:40:29Z</time>
      </trkpt>
      <trkpt lat="46.96267" lon="6.01206">
        <ele>498</ele>
        <time>2022-06-05T02:40:40Z</time>
      </trkpt>
      <trkpt lat="46.96268" lon="6.0121">
        <ele>498</ele>
        <time>2022-06-05T02:40:42Z</time>
      </trkpt>
      <trkpt lat="46.96269" lon="6.01217">
        <ele>498</ele>
        <time>2022-06-05T02:40:46Z</time>
      </trkpt>
      <trkpt lat="46.96268" lon="6.01222">
        <ele>498</ele>
        <time>2022-06-05T02:40:49Z</time>
      </trkpt>
      <trkpt lat="46.96262" lon="6.01243">
        <ele>497</ele>
        <time>2022-06-05T02:41:01Z</time>
      </trkpt>
      <trkpt lat="46.96257" lon="6.01266">
        <ele>497</ele>
        <time>2022-06-05T02:41:15Z</time>
      </trkpt>
      <trkpt lat="46.96255" lon="6.01279">
        <ele>497</ele>
        <time>2022-06-05T02:41:22Z</time>
      </trkpt>
      <trkpt lat="46.96252" lon="6.01293">
        <ele>497</ele>
        <time>2022-06-05T02:41:30Z</time>
      </trkpt>
      <trkpt lat="46.96248" lon="6.01304">
        <ele>498</ele>
        <time>2022-06-05T02:41:37Z</time>
      </trkpt>
      <trkpt lat="46.96243" lon="6.01313">
        <ele>499</ele>
        <time>2022-06-05T02:41:43Z</time>
      </trkpt>
      <trkpt lat="46.96238" lon="6.0132">
        <ele>500</ele>
        <time>2022-06-05T02:41:49Z</time>
      </trkpt>
      <trkpt lat="46.96235" lon="6.01322">
        <ele>501</ele>
        <time>2022-06-05T02:41:51Z</time>
      </trkpt>
      <trkpt lat="46.9623" lon="6.01323">
        <ele>502</ele>
        <time>2022-06-05T02:41:55Z</time>
      </trkpt>
      <trkpt lat="46.96226" lon="6.01322">
        <ele>502</ele>
        <time>2022-06-05T02:41:59Z</time>
      </trkpt>
      <trkpt lat="46.96213" lon="6.01309">
        <ele>504</ele>
        <time>2022-06-05T02:42:11Z</time>
      </trkpt>
      <trkpt lat="46.96162" lon="6.01255">
        <ele>504</ele>
        <time>2022-06-05T02:43:02Z</time>
      </trkpt>
      <trkpt lat="46.96145" lon="6.01238">
        <ele>507</ele>
        <time>2022-06-05T02:43:18Z</time>
      </trkpt>
      <trkpt lat="46.96139" lon="6.01234">
        <ele>508</ele>
        <time>2022-06-05T02:43:23Z</time>
      </trkpt>
      <trkpt lat="46.96127" lon="6.01225">
        <ele>511</ele>
        <time>2022-06-05T02:43:34Z</time>
      </trkpt>
      <trkpt lat="46.96119" lon="6.01221">
        <ele>512</ele>
        <time>2022-06-05T02:43:41Z</time>
      </trkpt>
      <trkpt lat="46.96112" lon="6.01216">
        <ele>513</ele>
        <time>2022-06-05T02:43:47Z</time>
      </trkpt>
      <trkpt lat="46.96107" lon="6.0121">
        <ele>514</ele>
        <time>2022-06-05T02:43:52Z</time>
      </trkpt>
      <trkpt lat="46.96101" lon="6.012">
        <ele>514</ele>
        <time>2022-06-05T02:44:00Z</time>
      </trkpt>
      <trkpt lat="46.96087" lon="6.01173">
        <ele>513</ele>
        <time>2022-06-05T02:44:18Z</time>
      </trkpt>
      <trkpt lat="46.96081" lon="6.01193">
        <ele>517</ele>
        <time>2022-06-05T02:44:30Z</time>
      </trkpt>
      <trkpt lat="46.9608" lon="6.01201">
        <ele>519</ele>
        <time>2022-06-05T02:44:35Z</time>
      </trkpt>
      <trkpt lat="46.96083" lon="6.01208">
        <ele>519</ele>
        <time>2022-06-05T02:44:39Z</time>
      </trkpt>
      <trkpt lat="46.96091" lon="6.01218">
        <ele>519</ele>
        <time>2022-06-05T02:44:48Z</time>
      </trkpt>
      <trkpt lat="46.96101" lon="6.01236">
        <ele>518</ele>
        <time>2022-06-05T02:45:00Z</time>
      </trkpt>
      <trkpt lat="46.96113" lon="6.01253">
        <ele>518</ele>
        <time>2022-06-05T02:45:14Z</time>
      </trkpt>
      <trkpt lat="46.96125" lon="6.01273">
        <ele>519</ele>
        <time>2022-06-05T02:45:28Z</time>
      </trkpt>
      <trkpt lat="46.96133" lon="6.01289">
        <ele>520</ele>
        <time>2022-06-05T02:45:39Z</time>
      </trkpt>
      <trkpt lat="46.96142" lon="6.01309">
        <ele>521</ele>
        <time>2022-06-05T02:45:52Z</time>
      </trkpt>
      <trkpt lat="46.96158" lon="6.01342">
        <ele>521</ele>
        <time>2022-06-05T02:46:14Z</time>
      </trkpt>
      <trkpt lat="46.96172" lon="6.01373">
        <ele>524</ele>
        <time>2022-06-05T02:46:35Z</time>
      </trkpt>
      <trkpt lat="46.96196" lon="6.01428">
        <ele>528</ele>
        <time>2022-06-05T02:47:10Z</time>
      </trkpt>
      <trkpt lat="46.96209" lon="6.01456">
        <ele>531</ele>
        <time>2022-06-05T02:47:29Z</time>
      </trkpt>
      <trkpt lat="46.96219" lon="6.01479">
        <ele>533</ele>
        <time>2022-06-05T02:47:44Z</time>
      </trkpt>
      <trkpt lat="46.96226" lon="6.01496">
        <ele>535</ele>
        <time>2022-06-05T02:47:55Z</time>
      </trkpt>
      <trkpt lat="46.96237" lon="6.01512">
        <ele>535</ele>
        <time>2022-06-05T02:48:07Z</time>
      </trkpt>
      <trkpt lat="46.96246" lon="6.01521">
        <ele>534</ele>
        <time>2022-06-05T02:48:16Z</time>
      </trkpt>
      <trkpt lat="46.96273" lon="6.01541">
        <ele>537</ele>
        <time>2022-06-05T02:48:40Z</time>
      </trkpt>
      <trkpt lat="46.96285" lon="6.01549">
        <ele>538</ele>
        <time>2022-06-05T02:48:51Z</time>
      </trkpt>
      <trkpt lat="46.96306" lon="6.01562">
        <ele>540</ele>
        <time>2022-06-05T02:49:09Z</time>
      </trkpt>
      <trkpt lat="46.96314" lon="6.01568">
        <ele>541</ele>
        <time>2022-06-05T02:49:16Z</time>
      </trkpt>
      <trkpt lat="46.96321" lon="6.01572">
        <ele>541</ele>
        <time>2022-06-05T02:49:22Z</time>
      </trkpt>
      <trkpt lat="46.96328" lon="6.01574">
        <ele>541</ele>
        <time>2022-06-05T02:49:28Z</time>
      </trkpt>
      <trkpt lat="46.96334" lon="6.01574">
        <ele>541</ele>
        <time>2022-06-05T02:49:33Z</time>
      </trkpt>
      <trkpt lat="46.9634" lon="6.01573">
        <ele>541</ele>
        <time>2022-06-05T02:49:38Z</time>
      </trkpt>
      <trkpt lat="46.96353" lon="6.01564">
        <ele>540</ele>
        <time>2022-06-05T02:49:49Z</time>
      </trkpt>
      <trkpt lat="46.96362" lon="6.01561">
        <ele>540</ele>
        <time>2022-06-05T02:49:56Z</time>
      </trkpt>
      <trkpt lat="46.96359" lon="6.0155">
        <ele>538</ele>
        <time>2022-06-05T02:50:03Z</time>
      </trkpt>
      <trkpt lat="46.96358" lon="6.01541">
        <ele>536</ele>
        <time>2022-06-05T02:50:08Z</time>
      </trkpt>
      <trkpt lat="46.96359" lon="6.01533">
        <ele>535</ele>
        <time>2022-06-05T02:50:12Z</time>
      </trkpt>
      <trkpt lat="46.96362" lon="6.01524">
        <ele>533</ele>
        <time>2022-06-05T02:50:18Z</time>
      </trkpt>
      <trkpt lat="46.96365" lon="6.01517">
        <ele>532</ele>
        <time>2022-06-05T02:50:22Z</time>
      </trkpt>
      <trkpt lat="46.96369" lon="6.0151">
        <ele>531</ele>
        <time>2022-06-05T02:50:27Z</time>
      </trkpt>
      <trkpt lat="46.96373" lon="6.01504">
        <ele>530</ele>
        <time>2022-06-05T02:50:32Z</time>
      </trkpt>
      <trkpt lat="46.96381" lon="6.015">
        <ele>529</ele>
        <time>2022-06-05T02:50:39Z</time>
      </trkpt>
      <trkpt lat="46.96388" lon="6.01501">
        <ele>530</ele>
        <time>2022-06-05T02:50:44Z</time>
      </trkpt>
      <trkpt lat="46.96396" lon="6.01505">
        <ele>531</ele>
        <time>2022-06-05T02:50:51Z</time>
      </trkpt>
      <trkpt lat="46.96403" lon="6.01512">
        <ele>533</ele>
        <time>2022-06-05T02:50:58Z</time>
      </trkpt>
      <trkpt lat="46.96414" lon="6.01521">
        <ele>535</ele>
        <time>2022-06-05T02:51:08Z</time>
      </trkpt>
      <trkpt lat="46.96424" lon="6.01525">
        <ele>536</ele>
        <time>2022-06-05T02:51:16Z</time>
      </trkpt>
      <trkpt lat="46.96432" lon="6.01527">
        <ele>537</ele>
        <time>2022-06-05T02:51:23Z</time>
      </trkpt>
      <trkpt lat="46.9644" lon="6.01526">
        <ele>538</ele>
        <time>2022-06-05T02:51:29Z</time>
      </trkpt>
      <trkpt lat="46.96447" lon="6.01522">
        <ele>538</ele>
        <time>2022-06-05T02:51:35Z</time>
      </trkpt>
      <trkpt lat="46.96458" lon="6.01513">
        <ele>537</ele>
        <time>2022-06-05T02:51:45Z</time>
      </trkpt>
      <trkpt lat="46.96471" lon="6.01501">
        <ele>537</ele>
        <time>2022-06-05T02:51:58Z</time>
      </trkpt>
      <trkpt lat="46.96479" lon="6.01493">
        <ele>536</ele>
        <time>2022-06-05T02:52:05Z</time>
      </trkpt>
      <trkpt lat="46.96485" lon="6.01486">
        <ele>534</ele>
        <time>2022-06-05T02:52:12Z</time>
      </trkpt>
      <trkpt lat="46.96494" lon="6.0147">
        <ele>530</ele>
        <time>2022-06-05T02:52:23Z</time>
      </trkpt>
      <trkpt lat="46.96497" lon="6.0146">
        <ele>527</ele>
        <time>2022-06-05T02:52:29Z</time>
      </trkpt>
      <trkpt lat="46.96499" lon="6.0144">
        <ele>521</ele>
        <time>2022-06-05T02:52:40Z</time>
      </trkpt>
      <trkpt lat="46.965" lon="6.01434">
        <ele>519</ele>
        <time>2022-06-05T02:52:43Z</time>
      </trkpt>
      <trkpt lat="46.96502" lon="6.01426">
        <ele>517</ele>
        <time>2022-06-05T02:52:48Z</time>
      </trkpt>
      <trkpt lat="46.96505" lon="6.01419">
        <ele>515</ele>
        <time>2022-06-05T02:52:53Z</time>
      </trkpt>
      <trkpt lat="46.96509" lon="6.01414">
        <ele>513</ele>
        <time>2022-06-05T02:52:57Z</time>
      </trkpt>
      <trkpt lat="46.96514" lon="6.0141">
        <ele>512</ele>
        <time>2022-06-05T02:53:01Z</time>
      </trkpt>
      <trkpt lat="46.96519" lon="6.01407">
        <ele>510</ele>
        <time>2022-06-05T02:53:06Z</time>
      </trkpt>
      <trkpt lat="46.96526" lon="6.01405">
        <ele>510</ele>
        <time>2022-06-05T02:53:11Z</time>
      </trkpt>
      <trkpt lat="46.96535" lon="6.01406">
        <ele>512</ele>
        <time>2022-06-05T02:53:19Z</time>
      </trkpt>
      <trkpt lat="46.96547" lon="6.01408">
        <ele>515</ele>
        <time>2022-06-05T02:53:28Z</time>
      </trkpt>
      <trkpt lat="46.96559" lon="6.01411">
        <ele>518</ele>
        <time>2022-06-05T02:53:38Z</time>
      </trkpt>
      <trkpt lat="46.96568" lon="6.01412">
        <ele>520</ele>
        <time>2022-06-05T02:53:45Z</time>
      </trkpt>
      <trkpt lat="46.96592" lon="6.01412">
        <ele>520</ele>
        <time>2022-06-05T02:54:05Z</time>
      </trkpt>
      <trkpt lat="46.96626" lon="6.01422">
        <ele>518</ele>
        <time>2022-06-05T02:54:32Z</time>
      </trkpt>
      <trkpt lat="46.96655" lon="6.01433">
        <ele>516</ele>
        <time>2022-06-05T02:54:56Z</time>
      </trkpt>
      <trkpt lat="46.96671" lon="6.01444">
        <ele>517</ele>
        <time>2022-06-05T02:55:10Z</time>
      </trkpt>
      <trkpt lat="46.96688" lon="6.01461">
        <ele>519</ele>
        <time>2022-06-05T02:55:27Z</time>
      </trkpt>
      <trkpt lat="46.96698" lon="6.01473">
        <ele>521</ele>
        <time>2022-06-05T02:55:37Z</time>
      </trkpt>
      <trkpt lat="46.9671" lon="6.01486">
        <ele>523</ele>
        <time>2022-06-05T02:55:49Z</time>
      </trkpt>
      <trkpt lat="46.96732" lon="6.01505">
        <ele>523</ele>
        <time>2022-06-05T02:56:10Z</time>
      </trkpt>
      <trkpt lat="46.96738" lon="6.01511">
        <ele>523</ele>
        <time>2022-06-05T02:56:16Z</time>
      </trkpt>
      <trkpt lat="46.9675" lon="6.01519">
        <ele>522</ele>
        <time>2022-06-05T02:56:26Z</time>
      </trkpt>
      <trkpt lat="46.96756" lon="6.01522">
        <ele>524</ele>
        <time>2022-06-05T02:56:31Z</time>
      </trkpt>
      <trkpt lat="46.96762" lon="6.01521">
        <ele>525</ele>
        <time>2022-06-05T02:56:36Z</time>
      </trkpt>
      <trkpt lat="46.96768" lon="6.01519">
        <ele>526</ele>
        <time>2022-06-05T02:56:41Z</time>
      </trkpt>
      <trkpt lat="46.96774" lon="6.01514">
        <ele>526</ele>
        <time>2022-06-05T02:56:47Z</time>
      </trkpt>
      <trkpt lat="46.96781" lon="6.01506">
        <ele>525</ele>
        <time>2022-06-05T02:56:54Z</time>
      </trkpt>
      <trkpt lat="46.96789" lon="6.01494">
        <ele>523</ele>
        <time>2022-06-05T02:57:03Z</time>
      </trkpt>
      <trkpt lat="46.96788" lon="6.0148">
        <ele>517</ele>
        <time>2022-06-05T02:57:11Z</time>
      </trkpt>
      <trkpt lat="46.96793" lon="6.01464">
        <ele>512</ele>
        <time>2022-06-05T02:57:20Z</time>
      </trkpt>
      <trkpt lat="46.96808" lon="6.01427">
        <ele>503</ele>
        <time>2022-06-05T02:57:44Z</time>
      </trkpt>
      <trkpt lat="46.96821" lon="6.01389">
        <ele>494</ele>
        <time>2022-06-05T02:58:07Z</time>
      </trkpt>
      <trkpt lat="46.96829" lon="6.01358">
        <ele>486</ele>
        <time>2022-06-05T02:58:25Z</time>
      </trkpt>
      <trkpt lat="46.96834" lon="6.01328">
        <ele>478</ele>
        <time>2022-06-05T02:58:42Z</time>
      </trkpt>
      <trkpt lat="46.96838" lon="6.01309">
        <ele>475</ele>
        <time>2022-06-05T02:58:53Z</time>
      </trkpt>
      <trkpt lat="46.96855" lon="6.01266">
        <ele>469</ele>
        <time>2022-06-05T02:59:20Z</time>
      </trkpt>
      <trkpt lat="46.96866" lon="6.01244">
        <ele>466</ele>
        <time>2022-06-05T02:59:35Z</time>
      </trkpt>
      <trkpt lat="46.96884" lon="6.01223">
        <ele>467</ele>
        <time>2022-06-05T02:59:53Z</time>
      </trkpt>
      <trkpt lat="46.96921" lon="6.01188">
        <ele>470</ele>
        <time>2022-06-05T03:00:29Z</time>
      </trkpt>
      <trkpt lat="46.96928" lon="6.01179">
        <ele>469</ele>
        <time>2022-06-05T03:00:36Z</time>
      </trkpt>
      <trkpt lat="46.96932" lon="6.01168">
        <ele>468</ele>
        <time>2022-06-05T03:00:43Z</time>
      </trkpt>
      <trkpt lat="46.96932" lon="6.01143">
        <ele>461</ele>
        <time>2022-06-05T03:00:57Z</time>
      </trkpt>
      <trkpt lat="46.96937" lon="6.01076">
        <ele>446</ele>
        <time>2022-06-05T03:01:33Z</time>
      </trkpt>
      <trkpt lat="46.96942" lon="6.01017">
        <ele>436</ele>
        <time>2022-06-05T03:02:06Z</time>
      </trkpt>
      <trkpt lat="46.96944" lon="6.00979">
        <ele>431</ele>
        <time>2022-06-05T03:02:27Z</time>
      </trkpt>
      <trkpt lat="46.96931" lon="6.00978">
        <ele>429</ele>
        <time>2022-06-05T03:02:37Z</time>
      </trkpt>
      <trkpt lat="46.9692" lon="6.00982">
        <ele>428</ele>
        <time>2022-06-05T03:02:46Z</time>
      </trkpt>
      <trkpt lat="46.96901" lon="6.01003">
        <ele>424</ele>
        <time>2022-06-05T03:03:05Z</time>
      </trkpt>
      <trkpt lat="46.96881" lon="6.01032">
        <ele>421</ele>
        <time>2022-06-05T03:03:28Z</time>
      </trkpt>
      <trkpt lat="46.96874" lon="6.01058">
        <ele>423</ele>
        <time>2022-06-05T03:03:43Z</time>
      </trkpt>
      <trkpt lat="46.96866" lon="6.01081">
        <ele>424</ele>
        <time>2022-06-05T03:03:57Z</time>
      </trkpt>
      <trkpt lat="46.9685" lon="6.01103">
        <ele>423</ele>
        <time>2022-06-05T03:04:15Z</time>
      </trkpt>
      <trkpt lat="46.96832" lon="6.01113">
        <ele>420</ele>
        <time>2022-06-05T03:04:30Z</time>
      </trkpt>
      <trkpt lat="46.96814" lon="6.01118">
        <ele>417</ele>
        <time>2022-06-05T03:04:45Z</time>
      </trkpt>
      <trkpt lat="46.9681" lon="6.01126">
        <ele>419</ele>
        <time>2022-06-05T03:04:51Z</time>
      </trkpt>
      <trkpt lat="46.96806" lon="6.01138">
        <ele>422</ele>
        <time>2022-06-05T03:04:58Z</time>
      </trkpt>
      <trkpt lat="46.968" lon="6.01165">
        <ele>429</ele>
        <time>2022-06-05T03:05:13Z</time>
      </trkpt>
      <trkpt lat="46.96792" lon="6.01186">
        <ele>432</ele>
        <time>2022-06-05T03:05:27Z</time>
      </trkpt>
      <trkpt lat="46.96779" lon="6.01204">
        <ele>434</ele>
        <time>2022-06-05T03:05:41Z</time>
      </trkpt>
      <trkpt lat="46.96766" lon="6.01209">
        <ele>432</ele>
        <time>2022-06-05T03:05:52Z</time>
      </trkpt>
      <trkpt lat="46.96753" lon="6.01201">
        <ele>427</ele>
        <time>2022-06-05T03:06:03Z</time>
      </trkpt>
      <trkpt lat="46.96745" lon="6.01183">
        <ele>422</ele>
        <time>2022-06-05T03:06:15Z</time>
      </trkpt>
      <trkpt lat="46.9674" lon="6.01147">
        <ele>411</ele>
        <time>2022-06-05T03:06:35Z</time>
      </trkpt>
      <trkpt lat="46.96731" lon="6.0113">
        <ele>405</ele>
        <time>2022-06-05T03:06:47Z</time>
      </trkpt>
      <trkpt lat="46.96719" lon="6.01121">
        <ele>401</ele>
        <time>2022-06-05T03:06:57Z</time>
      </trkpt>
      <trkpt lat="46.96703" lon="6.0112">
        <ele>399</ele>
        <time>2022-06-05T03:07:10Z</time>
      </trkpt>
      <trkpt lat="46.9662" lon="6.0117">
        <ele>406</ele>
        <time>2022-06-05T03:08:22Z</time>
      </trkpt>
      <trkpt lat="46.96606" lon="6.01186">
        <ele>409</ele>
        <time>2022-06-05T03:08:36Z</time>
      </trkpt>
      <trkpt lat="46.96566" lon="6.0125">
        <ele>424</ele>
        <time>2022-06-05T03:09:24Z</time>
      </trkpt>
      <trkpt lat="46.96557" lon="6.01256">
        <ele>428</ele>
        <time>2022-06-05T03:09:32Z</time>
      </trkpt>
      <trkpt lat="46.9655" lon="6.01254">
        <ele>429</ele>
        <time>2022-06-05T03:09:37Z</time>
      </trkpt>
      <trkpt lat="46.96548" lon="6.01242">
        <ele>427</ele>
        <time>2022-06-05T03:09:44Z</time>
      </trkpt>
      <trkpt lat="46.96558" lon="6.01228">
        <ele>424</ele>
        <time>2022-06-05T03:09:55Z</time>
      </trkpt>
      <trkpt lat="46.96562" lon="6.01213">
        <ele>421</ele>
        <time>2022-06-05T03:10:04Z</time>
      </trkpt>
      <trkpt lat="46.9658" lon="6.01191">
        <ele>410</ele>
        <time>2022-06-05T03:10:23Z</time>
      </trkpt>
      <trkpt lat="46.96616" lon="6.01145">
        <ele>405</ele>
        <time>2022-06-05T03:11:01Z</time>
      </trkpt>
      <trkpt lat="46.96647" lon="6.0112">
        <ele>400</ele>
        <time>2022-06-05T03:11:30Z</time>
      </trkpt>
      <trkpt lat="46.96667" lon="6.01105">
        <ele>393</ele>
        <time>2022-06-05T03:11:48Z</time>
      </trkpt>
      <trkpt lat="46.96663" lon="6.01094">
        <ele>392</ele>
        <time>2022-06-05T03:11:54Z</time>
      </trkpt>
      <trkpt lat="46.96662" lon="6.01084">
        <ele>390</ele>
        <time>2022-06-05T03:12:00Z</time>
      </trkpt>
      <trkpt lat="46.96666" lon="6.01077">
        <ele>388</ele>
        <time>2022-06-05T03:12:05Z</time>
      </trkpt>
      <trkpt lat="46.96676" lon="6.01067">
        <ele>388</ele>
        <time>2022-06-05T03:12:15Z</time>
      </trkpt>
      <trkpt lat="46.96679" lon="6.0106">
        <ele>388</ele>
        <time>2022-06-05T03:12:19Z</time>
      </trkpt>
      <trkpt lat="46.96672" lon="6.01039">
        <ele>388</ele>
        <time>2022-06-05T03:12:32Z</time>
      </trkpt>
      <trkpt lat="46.96683" lon="6.01027">
        <ele>387</ele>
        <time>2022-06-05T03:12:43Z</time>
      </trkpt>
      <trkpt lat="46.96699" lon="6.01011">
        <ele>386</ele>
        <time>2022-06-05T03:12:58Z</time>
      </trkpt>
      <trkpt lat="46.96681" lon="6.00973">
        <ele>389</ele>
        <time>2022-06-05T03:13:24Z</time>
      </trkpt>
      <trkpt lat="46.96722" lon="6.00933">
        <ele>387</ele>
        <time>2022-06-05T03:14:03Z</time>
      </trkpt>
      <trkpt lat="46.96737" lon="6.00933">
        <ele>386</ele>
        <time>2022-06-05T03:14:15Z</time>
      </trkpt>
      <trkpt lat="46.96768" lon="6.00943">
        <ele>386</ele>
        <time>2022-06-05T03:14:41Z</time>
      </trkpt>
      <trkpt lat="46.96777" lon="6.00896">
        <ele>390</ele>
        <time>2022-06-05T03:15:07Z</time>
      </trkpt>
      <trkpt lat="46.96772" lon="6.00839">
        <ele>394</ele>
        <time>2022-06-05T03:15:39Z</time>
      </trkpt>
      <trkpt lat="46.96772" lon="6.008">
        <ele>399</ele>
        <time>2022-06-05T03:16:00Z</time>
      </trkpt>
      <trkpt lat="46.96774" lon="6.00777">
        <ele>401</ele>
        <time>2022-06-05T03:16:13Z</time>
      </trkpt>
      <trkpt lat="46.96794" lon="6.00713">
        <ele>406</ele>
        <time>2022-06-05T03:16:51Z</time>
      </trkpt>
      <trkpt lat="46.96836" lon="6.00604">
        <ele>398</ele>
        <time>2022-06-05T03:18:00Z</time>
      </trkpt>
      <trkpt lat="46.96862" lon="6.00545">
        <ele>407</ele>
        <time>2022-06-05T03:18:38Z</time>
      </trkpt>
      <trkpt lat="46.96897" lon="6.00498">
        <ele>398</ele>
        <time>2022-06-05T03:19:16Z</time>
      </trkpt>
      <trkpt lat="46.96924" lon="6.00464">
        <ele>393</ele>
        <time>2022-06-05T03:19:45Z</time>
      </trkpt>
      <trkpt lat="46.96945" lon="6.00439">
        <ele>392</ele>
        <time>2022-06-05T03:20:06Z</time>
      </trkpt>
      <trkpt lat="46.96961" lon="6.00415">
        <ele>389</ele>
        <time>2022-06-05T03:20:25Z</time>
      </trkpt>
      <trkpt lat="46.96981" lon="6.00367">
        <ele>389</ele>
        <time>2022-06-05T03:20:56Z</time>
      </trkpt>
      <trkpt lat="46.96995" lon="6.00321">
        <ele>387</ele>
        <time>2022-06-05T03:21:23Z</time>
      </trkpt>
      <trkpt lat="46.9701" lon="6.00265">
        <ele>387</ele>
        <time>2022-06-05T03:21:56Z</time>
      </trkpt>
      <trkpt lat="46.97026" lon="6.00216">
        <ele>389</ele>
        <time>2022-06-05T03:22:26Z</time>
      </trkpt>
      <trkpt lat="46.97041" lon="6.00193">
        <ele>386</ele>
        <time>2022-06-05T03:22:43Z</time>
      </trkpt>
      <trkpt lat="46.97055" lon="6.00165">
        <ele>383</ele>
        <time>2022-06-05T03:23:02Z</time>
      </trkpt>
      <trkpt lat="46.97065" lon="6.00132">
        <ele>382</ele>
        <time>2022-06-05T03:23:22Z</time>
      </trkpt>
      <trkpt lat="46.97072" lon="6.00112">
        <ele>380</ele>
        <time>2022-06-05T03:23:34Z</time>
      </trkpt>
      <trkpt lat="46.97075" lon="6.00095">
        <ele>380</ele>
        <time>2022-06-05T03:23:44Z</time>
      </trkpt>
      <trkpt lat="46.97079" lon="6.00063">
        <ele>382</ele>
        <time>2022-06-05T03:24:02Z</time>
      </trkpt>
      <trkpt lat="46.97082" lon="6.00046">
        <ele>382</ele>
        <time>2022-06-05T03:24:11Z</time>
      </trkpt>
      <trkpt lat="46.97086" lon="6.00026">
        <ele>383</ele>
        <time>2022-06-05T03:24:23Z</time>
      </trkpt>
      <trkpt lat="46.97095" lon="5.99989">
        <ele>386</ele>
        <time>2022-06-05T03:24:44Z</time>
      </trkpt>
      <trkpt lat="46.971" lon="5.99977">
        <ele>387</ele>
        <time>2022-06-05T03:24:52Z</time>
      </trkpt>
      <trkpt lat="46.97104" lon="5.99969">
        <ele>387</ele>
        <time>2022-06-05T03:24:57Z</time>
      </trkpt>
      <trkpt lat="46.97123" lon="5.99935">
        <ele>387</ele>
        <time>2022-06-05T03:25:21Z</time>
      </trkpt>
      <trkpt lat="46.97153" lon="5.99905">
        <ele>381</ele>
        <time>2022-06-05T03:25:50Z</time>
      </trkpt>
      <trkpt lat="46.97194" lon="5.99883">
        <ele>376</ele>
        <time>2022-06-05T03:26:25Z</time>
      </trkpt>
      <trkpt lat="46.97212" lon="5.99871">
        <ele>375</ele>
        <time>2022-06-05T03:26:41Z</time>
      </trkpt>
      <trkpt lat="46.97226" lon="5.99858">
        <ele>374</ele>
        <time>2022-06-05T03:26:54Z</time>
      </trkpt>
      <trkpt lat="46.97237" lon="5.99844">
        <ele>373</ele>
        <time>2022-06-05T03:27:06Z</time>
      </trkpt>
      <trkpt lat="46.97245" lon="5.99832">
        <ele>372</ele>
        <time>2022-06-05T03:27:15Z</time>
      </trkpt>
      <trkpt lat="46.97255" lon="5.99809">
        <ele>371</ele>
        <time>2022-06-05T03:27:30Z</time>
      </trkpt>
      <trkpt lat="46.97259" lon="5.99798">
        <ele>371</ele>
        <time>2022-06-05T03:27:37Z</time>
      </trkpt>
      <trkpt lat="46.9726" lon="5.99784">
        <ele>371</ele>
        <time>2022-06-05T03:27:45Z</time>
      </trkpt>
      <trkpt lat="46.9726" lon="5.99758">
        <ele>371</ele>
        <time>2022-06-05T03:27:59Z</time>
      </trkpt>
      <trkpt lat="46.97261" lon="5.99749">
        <ele>371</ele>
        <time>2022-06-05T03:28:04Z</time>
      </trkpt>
      <trkpt lat="46.97265" lon="5.99739">
        <ele>371</ele>
        <time>2022-06-05T03:28:10Z</time>
      </trkpt>
      <trkpt lat="46.97268" lon="5.99721">
        <ele>370</ele>
        <time>2022-06-05T03:28:20Z</time>
      </trkpt>
      <trkpt lat="46.97275" lon="5.99721">
        <ele>370</ele>
        <time>2022-06-05T03:28:26Z</time>
      </trkpt>
      <trkpt lat="46.97285" lon="5.99716">
        <ele>369</ele>
        <time>2022-06-05T03:28:34Z</time>
      </trkpt>
      <trkpt lat="46.97292" lon="5.99707">
        <ele>369</ele>
        <time>2022-06-05T03:28:42Z</time>
      </trkpt>
      <trkpt lat="46.97303" lon="5.99711">
        <ele>369</ele>
        <time>2022-06-05T03:28:51Z</time>
      </trkpt>
      <trkpt lat="46.97329" lon="5.99711">
        <ele>367</ele>
        <time>2022-06-05T03:29:12Z</time>
      </trkpt>
      <trkpt lat="46.97363" lon="5.99705">
        <ele>367</ele>
        <time>2022-06-05T03:29:39Z</time>
      </trkpt>
      <trkpt lat="46.97376" lon="5.99702">
        <ele>367</ele>
        <time>2022-06-05T03:29:50Z</time>
      </trkpt>
      <trkpt lat="46.9739" lon="5.99697">
        <ele>367</ele>
        <time>2022-06-05T03:30:01Z</time>
      </trkpt>
      <trkpt lat="46.97404" lon="5.99689">
        <ele>367</ele>
        <time>2022-06-05T03:30:13Z</time>
      </trkpt>
      <trkpt lat="46.97411" lon="5.99686">
        <ele>367</ele>
        <time>2022-06-05T03:30:19Z</time>
      </trkpt>
      <trkpt lat="46.97442" lon="5.9967">
        <ele>368</ele>
        <time>2022-06-05T03:30:46Z</time>
      </trkpt>
      <trkpt lat="46.97464" lon="5.9966">
        <ele>368</ele>
        <time>2022-06-05T03:31:04Z</time>
      </trkpt>
      <trkpt lat="46.97489" lon="5.99648">
        <ele>369</ele>
        <time>2022-06-05T03:31:25Z</time>
      </trkpt>
    </trkseg>
  </trk>
</gpx>